SJX081 RCTP-KJFK
Flight info
| Callsign | SJX081 |
|---|---|
| Flight time | 13h 34m |
| Altitude | 33000 |
| Route | MOLKA1A MOLKA M750 IMPAL Y755 CARDS DCT HIOTI DCT CBE Y121 SWING Y88 DAIGO Y889 OATIS OTR3 PUTER/N0493F340 A590 PUGAL/N0492F350 A590 POWAL DCT OPAKE R580 ONEIL DCT ECOMI DCT ORVIL/N0493F370 R580 ORCCA DCT SQA DCT BGQ J124 GKN NCA14 GAHAM DCT 61N130W DCT YPE/N0481F390 DCT WAINN DCT DURUR DCT 49N100W DCT GFK DCT GRB DCT TWIGS DCT CHAAP DCT JHW Q476 WLKES PUCKY1 |
| Aircraft | A359/H-SDE2E3GHIJ3J4J5LM1ORWXY/LB1D1 |
Departure
| Time | 2026-05-05 01:42 |
|---|---|
| Airport | Taiwan Taoyuan International Airport (RCTP) |
Arrival
| Time | 2026-05-05 15:17 |
|---|---|
| Airport | John F. Kennedy International Airport (KJFK) |
| Time | Latitude | Longitude | Altitude | Speed | Heading |
|---|---|---|---|---|---|
| 2026-05-05 01:31 | 25.07237 | 121.23325 | 107 ft | 0 kts | 320° |
| 2026-05-05 01:35 | 25.07235 | 121.23327 | 107 ft | 1 kts | 321° |
| 2026-05-05 01:36 | 25.07221 | 121.23339 | 113 ft | 3 kts | 328° |
| 2026-05-05 01:36 | 25.07203 | 121.23350 | 105 ft | 3 kts | 333° |
| 2026-05-05 01:36 | 25.07186 | 121.23360 | 104 ft | 2 kts | 328° |
| 2026-05-05 01:36 | 25.07174 | 121.23368 | 105 ft | 3 kts | 319° |
| 2026-05-05 01:37 | 25.07163 | 121.23380 | 104 ft | 3 kts | 290° |
| 2026-05-05 01:37 | 25.07160 | 121.23391 | 104 ft | 3 kts | 253° |
| 2026-05-05 01:37 | 25.07163 | 121.23401 | 103 ft | 0 kts | 235° |
| 2026-05-05 01:38 | 25.07161 | 121.23399 | 104 ft | 1 kts | 234° |
| 2026-05-05 01:38 | 25.07135 | 121.23366 | 104 ft | 11 kts | 228° |
| 2026-05-05 01:38 | 25.07056 | 121.23270 | 106 ft | 22 kts | 227° |
| 2026-05-05 01:39 | 25.06942 | 121.23131 | 105 ft | 9 kts | 230° |
| 2026-05-05 01:39 | 25.06905 | 121.23081 | 106 ft | 11 kts | 230° |
| 2026-05-05 01:39 | 25.06839 | 121.22996 | 105 ft | 18 kts | 229° |
| 2026-05-05 01:39 | 25.06748 | 121.22879 | 105 ft | 23 kts | 229° |
| 2026-05-05 01:40 | 25.06642 | 121.22743 | 105 ft | 24 kts | 229° |
| 2026-05-05 01:40 | 25.06529 | 121.22600 | 105 ft | 24 kts | 229° |
| 2026-05-05 01:40 | 25.06422 | 121.22465 | 106 ft | 24 kts | 229° |
| 2026-05-05 01:40 | 25.06309 | 121.22337 | 105 ft | 18 kts | 202° |
| 2026-05-05 01:41 | 25.06190 | 121.22384 | 103 ft | 21 kts | 147° |
| 2026-05-05 01:41 | 25.06157 | 121.22446 | 103 ft | 5 kts | 49° |
| 2026-05-05 01:41 | 25.06232 | 121.22541 | 103 ft | 38 kts | 49° |
| 2026-05-05 01:41 | 25.06515 | 121.22902 | 102 ft | 85 kts | 49° |
| 2026-05-05 01:42 | 25.06997 | 121.23512 | 103 ft | 125 kts | 49° |
| 2026-05-05 01:42 | 25.07653 | 121.24339 | 103 ft | 160 kts | 48° |
| 2026-05-05 01:42 | 25.08411 | 121.25282 | 488 ft | 160 kts | 49° |
| 2026-05-05 01:42 | 25.09152 | 121.26223 | 807 ft | 165 kts | 52° |
| 2026-05-05 01:43 | 25.09881 | 121.27199 | 1143 ft | 165 kts | 53° |
| 2026-05-05 01:43 | 25.10634 | 121.28215 | 1329 ft | 178 kts | 53° |
| 2026-05-05 01:43 | 25.11442 | 121.29308 | 1530 ft | 192 kts | 52° |
| 2026-05-05 01:43 | 25.12361 | 121.30450 | 1896 ft | 206 kts | 48° |
| 2026-05-05 01:44 | 25.13391 | 121.31603 | 2471 ft | 213 kts | 48° |
| 2026-05-05 01:44 | 25.14464 | 121.32807 | 2890 ft | 228 kts | 47° |
| 2026-05-05 01:44 | 25.15609 | 121.34107 | 3333 ft | 244 kts | 48° |
| 2026-05-05 01:44 | 25.16826 | 121.35495 | 3704 ft | 258 kts | 48° |
| 2026-05-05 01:45 | 25.18089 | 121.36940 | 4062 ft | 266 kts | 48° |
| 2026-05-05 01:45 | 25.19380 | 121.38426 | 4462 ft | 272 kts | 48° |
| 2026-05-05 01:45 | 25.20704 | 121.39951 | 4803 ft | 278 kts | 47° |
| 2026-05-05 01:45 | 25.22051 | 121.41500 | 5178 ft | 281 kts | 47° |
| 2026-05-05 01:46 | 25.23397 | 121.43048 | 5527 ft | 284 kts | 47° |
| 2026-05-05 01:46 | 25.24795 | 121.44659 | 5844 ft | 289 kts | 47° |
| 2026-05-05 01:46 | 25.26197 | 121.46275 | 6251 ft | 292 kts | 46° |
| 2026-05-05 01:46 | 25.27522 | 121.47989 | 6610 ft | 298 kts | 58° |
| 2026-05-05 01:47 | 25.28278 | 121.50111 | 6947 ft | 297 kts | 79° |
| 2026-05-05 01:47 | 25.28712 | 121.52358 | 7295 ft | 301 kts | 81° |
| 2026-05-05 01:47 | 25.29131 | 121.54620 | 7791 ft | 308 kts | 80° |
| 2026-05-05 01:47 | 25.29569 | 121.56932 | 8571 ft | 308 kts | 79° |
| 2026-05-05 01:48 | 25.30017 | 121.59265 | 9290 ft | 314 kts | 79° |
| 2026-05-05 01:48 | 25.30486 | 121.61684 | 10006 ft | 320 kts | 79° |
| 2026-05-05 01:48 | 25.30953 | 121.64073 | 10585 ft | 327 kts | 79° |
| 2026-05-05 01:48 | 25.31443 | 121.66584 | 11012 ft | 339 kts | 79° |
| 2026-05-05 01:49 | 25.31951 | 121.69182 | 11308 ft | 350 kts | 79° |
| 2026-05-05 01:49 | 25.32470 | 121.71843 | 11448 ft | 362 kts | 78° |
| 2026-05-05 01:49 | 25.33006 | 121.74607 | 11775 ft | 374 kts | 79° |
| 2026-05-05 01:49 | 25.33561 | 121.77457 | 12112 ft | 384 kts | 79° |
| 2026-05-05 01:50 | 25.34128 | 121.80382 | 12323 ft | 393 kts | 79° |
| 2026-05-05 01:50 | 25.34708 | 121.83357 | 12671 ft | 402 kts | 79° |
| 2026-05-05 01:50 | 25.35305 | 121.86417 | 13073 ft | 410 kts | 80° |
| 2026-05-05 01:50 | 25.35907 | 121.89531 | 13441 ft | 418 kts | 79° |
| 2026-05-05 01:51 | 25.36522 | 121.92705 | 13797 ft | 427 kts | 79° |
| 2026-05-05 01:51 | 25.37145 | 121.95935 | 14148 ft | 434 kts | 79° |
| 2026-05-05 01:51 | 25.37778 | 121.99210 | 14624 ft | 433 kts | 79° |
| 2026-05-05 01:51 | 25.38412 | 122.02474 | 15036 ft | 435 kts | 78° |
| 2026-05-05 01:52 | 25.39046 | 122.05755 | 15169 ft | 441 kts | 79° |
| 2026-05-05 01:52 | 25.39687 | 122.09104 | 15330 ft | 447 kts | 79° |
| 2026-05-05 01:52 | 25.40331 | 122.12467 | 15629 ft | 448 kts | 79° |
| 2026-05-05 01:52 | 25.40980 | 122.15859 | 15899 ft | 451 kts | 79° |
| 2026-05-05 01:53 | 25.41633 | 122.19256 | 16183 ft | 453 kts | 78° |
| 2026-05-05 01:53 | 25.42510 | 122.22598 | 16423 ft | 456 kts | 70° |
| 2026-05-05 01:53 | 25.43619 | 122.25917 | 16650 ft | 459 kts | 69° |
| 2026-05-05 01:53 | 25.44746 | 122.29224 | 16850 ft | 462 kts | 69° |
| 2026-05-05 01:54 | 25.45878 | 122.32565 | 17107 ft | 463 kts | 69° |
| 2026-05-05 01:54 | 25.47003 | 122.35901 | 17586 ft | 465 kts | 69° |
| 2026-05-05 01:54 | 25.48140 | 122.39279 | 17912 ft | 472 kts | 69° |
| 2026-05-05 01:54 | 25.49294 | 122.42713 | 18217 ft | 476 kts | 69° |
| 2026-05-05 01:55 | 25.50442 | 122.46139 | 18521 ft | 478 kts | 69° |
| 2026-05-05 01:55 | 25.51604 | 122.49610 | 18763 ft | 480 kts | 69° |
| 2026-05-05 01:55 | 25.52763 | 122.53076 | 18980 ft | 482 kts | 69° |
| 2026-05-05 01:55 | 25.53930 | 122.56567 | 19227 ft | 483 kts | 69° |
| 2026-05-05 01:56 | 25.55095 | 122.60059 | 19472 ft | 485 kts | 69° |
| 2026-05-05 01:56 | 25.56253 | 122.63529 | 19694 ft | 486 kts | 69° |
| 2026-05-05 01:56 | 25.57426 | 122.67052 | 19923 ft | 488 kts | 70° |
| 2026-05-05 01:56 | 25.58591 | 122.70551 | 20139 ft | 489 kts | 70° |
| 2026-05-05 01:57 | 25.59794 | 122.74167 | 20368 ft | 491 kts | 70° |
| 2026-05-05 01:57 | 25.60960 | 122.77677 | 20575 ft | 493 kts | 70° |
| 2026-05-05 01:57 | 25.62145 | 122.81247 | 20782 ft | 495 kts | 70° |
| 2026-05-05 01:57 | 25.63333 | 122.84830 | 21027 ft | 496 kts | 70° |
| 2026-05-05 01:58 | 25.64518 | 122.88408 | 21271 ft | 497 kts | 70° |
| 2026-05-05 01:58 | 25.65731 | 122.92014 | 21513 ft | 499 kts | 69° |
| 2026-05-05 01:58 | 25.66938 | 122.95573 | 21740 ft | 500 kts | 69° |
| 2026-05-05 01:58 | 25.68178 | 122.99240 | 21991 ft | 502 kts | 70° |
| 2026-05-05 01:59 | 25.69402 | 123.02867 | 22236 ft | 504 kts | 70° |
| 2026-05-05 01:59 | 25.70627 | 123.06507 | 22478 ft | 506 kts | 70° |
| 2026-05-05 01:59 | 25.71857 | 123.10165 | 22682 ft | 508 kts | 70° |
| 2026-05-05 01:59 | 25.73096 | 123.13854 | 22912 ft | 509 kts | 70° |
| 2026-05-05 02:00 | 25.74331 | 123.17537 | 23168 ft | 511 kts | 70° |
| 2026-05-05 02:00 | 25.75567 | 123.21225 | 23406 ft | 513 kts | 70° |
| 2026-05-05 02:00 | 25.76816 | 123.24956 | 23616 ft | 515 kts | 70° |
| 2026-05-05 02:00 | 25.78063 | 123.28684 | 23784 ft | 517 kts | 70° |
| 2026-05-05 02:01 | 25.79319 | 123.32443 | 23966 ft | 519 kts | 70° |
| 2026-05-05 02:01 | 25.80571 | 123.36196 | 24136 ft | 521 kts | 70° |
| 2026-05-05 02:01 | 25.81834 | 123.39983 | 24311 ft | 523 kts | 70° |
| 2026-05-05 02:01 | 25.83096 | 123.43772 | 24496 ft | 525 kts | 70° |
| 2026-05-05 02:02 | 25.84346 | 123.47530 | 24699 ft | 526 kts | 70° |
| 2026-05-05 02:02 | 25.85632 | 123.51343 | 24911 ft | 528 kts | 68° |
| 2026-05-05 02:02 | 25.87279 | 123.55045 | 25105 ft | 530 kts | 57° |
| 2026-05-05 02:02 | 25.89482 | 123.58257 | 25310 ft | 529 kts | 44° |
| 2026-05-05 02:03 | 25.92223 | 123.60935 | 25506 ft | 525 kts | 31° |
| 2026-05-05 02:03 | 25.95397 | 123.63003 | 25689 ft | 521 kts | 21° |
| 2026-05-05 02:03 | 25.98646 | 123.64705 | 25909 ft | 523 kts | 20° |
| 2026-05-05 02:03 | 26.01938 | 123.66403 | 26139 ft | 524 kts | 20° |
| 2026-05-05 02:04 | 26.05254 | 123.68123 | 26358 ft | 526 kts | 20° |
| 2026-05-05 02:04 | 26.08588 | 123.69859 | 26587 ft | 528 kts | 20° |
| 2026-05-05 02:04 | 26.11916 | 123.71597 | 26806 ft | 530 kts | 20° |
| 2026-05-05 02:04 | 26.15261 | 123.73347 | 27016 ft | 532 kts | 20° |
| 2026-05-05 02:05 | 26.18614 | 123.75103 | 27234 ft | 534 kts | 20° |
| 2026-05-05 02:05 | 26.21992 | 123.76874 | 27440 ft | 537 kts | 20° |
| 2026-05-05 02:05 | 26.25366 | 123.78645 | 27642 ft | 539 kts | 20° |
| 2026-05-05 02:05 | 26.28776 | 123.80435 | 27911 ft | 541 kts | 20° |
| 2026-05-05 02:06 | 26.32179 | 123.82224 | 28212 ft | 543 kts | 20° |
| 2026-05-05 02:06 | 26.35606 | 123.84026 | 28451 ft | 545 kts | 20° |
| 2026-05-05 02:06 | 26.39047 | 123.85836 | 28729 ft | 547 kts | 20° |
| 2026-05-05 02:06 | 26.42489 | 123.87649 | 28972 ft | 550 kts | 20° |
| 2026-05-05 02:07 | 26.45954 | 123.89475 | 29119 ft | 552 kts | 19° |
| 2026-05-05 02:07 | 26.49439 | 123.91313 | 29281 ft | 554 kts | 19° |
| 2026-05-05 02:07 | 26.52934 | 123.93157 | 29471 ft | 555 kts | 19° |
| 2026-05-05 02:07 | 26.56429 | 123.95003 | 29666 ft | 556 kts | 19° |
| 2026-05-05 02:08 | 26.59926 | 123.96851 | 29860 ft | 557 kts | 19° |
| 2026-05-05 02:08 | 26.63388 | 123.98821 | 30058 ft | 562 kts | 26° |
| 2026-05-05 02:08 | 26.66581 | 124.01381 | 30297 ft | 569 kts | 38° |
| 2026-05-05 02:08 | 26.69362 | 124.04559 | 30494 ft | 573 kts | 45° |
| 2026-05-05 02:09 | 26.71973 | 124.07939 | 30627 ft | 576 kts | 47° |
| 2026-05-05 02:09 | 26.74536 | 124.11386 | 30766 ft | 577 kts | 47° |
| 2026-05-05 02:09 | 26.77080 | 124.14858 | 30948 ft | 578 kts | 48° |
| 2026-05-05 02:09 | 26.79635 | 124.18349 | 31144 ft | 579 kts | 47° |
| 2026-05-05 02:10 | 26.82164 | 124.21790 | 31297 ft | 579 kts | 47° |
| 2026-05-05 02:10 | 26.84762 | 124.25307 | 31468 ft | 579 kts | 47° |
| 2026-05-05 02:10 | 26.87296 | 124.28723 | 31635 ft | 579 kts | 47° |
| 2026-05-05 02:10 | 26.89877 | 124.32197 | 31816 ft | 579 kts | 47° |
| 2026-05-05 02:11 | 26.92452 | 124.35660 | 31969 ft | 579 kts | 47° |
| 2026-05-05 02:11 | 26.95029 | 124.39127 | 32115 ft | 579 kts | 47° |
| 2026-05-05 02:11 | 26.97593 | 124.42581 | 32273 ft | 579 kts | 47° |
| 2026-05-05 02:11 | 27.00180 | 124.46076 | 32439 ft | 579 kts | 47° |
| 2026-05-05 02:12 | 27.02752 | 124.49552 | 32613 ft | 579 kts | 47° |
| 2026-05-05 02:12 | 27.07902 | 124.56503 | 32929 ft | 579 kts | 47° |
| 2026-05-05 02:12 | 27.10470 | 124.59973 | 33075 ft | 578 kts | 47° |
| 2026-05-05 02:13 | 27.13041 | 124.63451 | 33149 ft | 580 kts | 47° |
| 2026-05-05 02:13 | 27.18207 | 124.70446 | 33147 ft | 586 kts | 47° |
| 2026-05-05 02:14 | 27.22532 | 124.76318 | 33147 ft | 585 kts | 47° |
| 2026-05-05 02:14 | 27.28590 | 124.84557 | 33151 ft | 584 kts | 47° |
| 2026-05-05 02:15 | 27.32888 | 124.90411 | 33150 ft | 585 kts | 47° |
| 2026-05-05 02:15 | 27.38067 | 124.97475 | 33154 ft | 585 kts | 47° |
| 2026-05-05 02:16 | 27.43244 | 125.04535 | 33151 ft | 585 kts | 47° |
| 2026-05-05 02:16 | 27.48465 | 125.11562 | 33151 ft | 585 kts | 47° |
| 2026-05-05 02:17 | 27.53686 | 125.18587 | 33158 ft | 586 kts | 47° |
| 2026-05-05 02:17 | 27.58896 | 125.25630 | 33163 ft | 585 kts | 47° |
| 2026-05-05 02:18 | 27.64092 | 125.32675 | 33155 ft | 584 kts | 47° |
| 2026-05-05 02:18 | 27.69287 | 125.39732 | 33175 ft | 584 kts | 47° |
| 2026-05-05 02:19 | 27.74469 | 125.46783 | 33157 ft | 585 kts | 47° |
| 2026-05-05 02:19 | 27.79649 | 125.53840 | 33168 ft | 583 kts | 47° |
| 2026-05-05 02:20 | 27.84816 | 125.60894 | 33162 ft | 582 kts | 47° |
| 2026-05-05 02:20 | 27.89973 | 125.67944 | 33162 ft | 581 kts | 47° |
| 2026-05-05 02:21 | 27.95114 | 125.74982 | 33164 ft | 580 kts | 47° |
| 2026-05-05 02:21 | 28.00244 | 125.82018 | 33164 ft | 580 kts | 47° |
| 2026-05-05 02:22 | 28.05376 | 125.89069 | 33167 ft | 579 kts | 47° |
| 2026-05-05 02:22 | 28.10477 | 125.96091 | 33164 ft | 578 kts | 47° |
| 2026-05-05 02:23 | 28.15582 | 126.03126 | 33168 ft | 578 kts | 47° |
| 2026-05-05 02:23 | 28.20677 | 126.10158 | 33169 ft | 578 kts | 47° |
| 2026-05-05 02:24 | 28.25781 | 126.17218 | 33172 ft | 577 kts | 48° |
| 2026-05-05 02:24 | 28.30827 | 126.24210 | 33168 ft | 576 kts | 48° |
| 2026-05-05 02:25 | 28.35891 | 126.31238 | 33167 ft | 576 kts | 48° |
| 2026-05-05 02:25 | 28.40960 | 126.38282 | 33167 ft | 577 kts | 48° |
| 2026-05-05 02:26 | 28.46032 | 126.45342 | 33166 ft | 577 kts | 48° |
| 2026-05-05 02:26 | 28.51106 | 126.52419 | 33169 ft | 577 kts | 48° |
| 2026-05-05 02:27 | 28.56178 | 126.59505 | 33169 ft | 578 kts | 48° |
| 2026-05-05 02:27 | 28.61256 | 126.66610 | 33170 ft | 579 kts | 49° |
| 2026-05-05 02:28 | 28.66329 | 126.73721 | 33167 ft | 579 kts | 49° |
| 2026-05-05 02:28 | 28.71404 | 126.80848 | 33169 ft | 579 kts | 49° |
| 2026-05-05 02:29 | 28.76481 | 126.87990 | 33172 ft | 579 kts | 49° |
| 2026-05-05 02:29 | 28.81551 | 126.95132 | 33167 ft | 580 kts | 49° |
| 2026-05-05 02:30 | 28.86616 | 127.02280 | 33168 ft | 580 kts | 49° |
| 2026-05-05 02:30 | 28.91694 | 127.09458 | 33168 ft | 581 kts | 49° |
| 2026-05-05 02:31 | 28.96774 | 127.16653 | 33158 ft | 582 kts | 49° |
| 2026-05-05 02:31 | 29.01855 | 127.23861 | 33180 ft | 583 kts | 49° |
| 2026-05-05 02:32 | 29.06931 | 127.31076 | 33164 ft | 584 kts | 49° |
| 2026-05-05 02:32 | 29.12020 | 127.38321 | 33167 ft | 584 kts | 49° |
| 2026-05-05 02:33 | 29.17100 | 127.45566 | 33168 ft | 584 kts | 49° |
| 2026-05-05 02:33 | 29.22185 | 127.52832 | 33170 ft | 584 kts | 49° |
| 2026-05-05 02:34 | 29.27259 | 127.60092 | 33172 ft | 585 kts | 49° |
| 2026-05-05 02:34 | 29.32347 | 127.67387 | 33171 ft | 586 kts | 49° |
| 2026-05-05 02:35 | 29.37427 | 127.74682 | 33171 ft | 586 kts | 49° |
| 2026-05-05 02:35 | 29.42508 | 127.81994 | 33178 ft | 586 kts | 49° |
| 2026-05-05 02:36 | 29.47591 | 127.89319 | 33169 ft | 587 kts | 50° |
| 2026-05-05 02:36 | 29.52670 | 127.96654 | 33175 ft | 587 kts | 50° |
| 2026-05-05 02:37 | 29.57757 | 128.04013 | 33173 ft | 588 kts | 49° |
| 2026-05-05 02:37 | 29.62806 | 128.11317 | 33175 ft | 588 kts | 49° |
| 2026-05-05 02:38 | 29.67890 | 128.18685 | 33177 ft | 589 kts | 49° |
| 2026-05-05 02:38 | 29.72982 | 128.26082 | 33174 ft | 590 kts | 50° |
| 2026-05-05 02:39 | 29.78058 | 128.33470 | 33175 ft | 590 kts | 50° |
| 2026-05-05 02:39 | 29.83152 | 128.40897 | 33174 ft | 590 kts | 50° |
| 2026-05-05 02:40 | 29.88239 | 128.48328 | 33180 ft | 590 kts | 50° |
| 2026-05-05 02:40 | 29.93324 | 128.55770 | 33181 ft | 591 kts | 50° |
| 2026-05-05 02:41 | 29.98407 | 128.63222 | 33181 ft | 592 kts | 49° |
| 2026-05-05 02:41 | 30.03499 | 128.70702 | 33179 ft | 593 kts | 49° |
| 2026-05-05 02:42 | 30.08581 | 128.78180 | 33181 ft | 593 kts | 50° |
| 2026-05-05 02:42 | 30.13669 | 128.85681 | 33180 ft | 593 kts | 50° |
| 2026-05-05 02:43 | 30.18750 | 128.93187 | 33179 ft | 594 kts | 49° |
| 2026-05-05 02:43 | 30.23843 | 129.00725 | 33178 ft | 594 kts | 50° |
| 2026-05-05 02:44 | 30.28919 | 129.08265 | 33181 ft | 595 kts | 49° |
| 2026-05-05 02:44 | 30.34007 | 129.15816 | 33179 ft | 595 kts | 49° |
| 2026-05-05 02:45 | 30.39106 | 129.23399 | 33181 ft | 596 kts | 49° |
| 2026-05-05 02:45 | 30.44192 | 129.30983 | 33181 ft | 596 kts | 50° |
| 2026-05-05 02:46 | 30.49272 | 129.38573 | 33184 ft | 596 kts | 50° |
| 2026-05-05 02:46 | 30.54355 | 129.46183 | 33184 ft | 597 kts | 50° |
| 2026-05-05 02:47 | 30.59438 | 129.53807 | 33184 ft | 597 kts | 50° |
| 2026-05-05 02:47 | 30.64513 | 129.61434 | 33184 ft | 598 kts | 50° |
| 2026-05-05 02:48 | 30.69605 | 129.69100 | 33183 ft | 599 kts | 50° |
| 2026-05-05 02:48 | 30.74683 | 129.76760 | 33187 ft | 599 kts | 50° |
| 2026-05-05 02:49 | 30.79763 | 129.84439 | 33179 ft | 599 kts | 50° |
| 2026-05-05 02:49 | 30.84744 | 129.92200 | 33184 ft | 601 kts | 55° |
| 2026-05-05 02:50 | 30.89210 | 130.00365 | 33187 ft | 601 kts | 56° |
| 2026-05-05 02:50 | 30.93621 | 130.08697 | 33195 ft | 602 kts | 57° |
| 2026-05-05 02:51 | 30.98004 | 130.17017 | 33174 ft | 602 kts | 57° |
| 2026-05-05 02:51 | 31.02401 | 130.25343 | 33192 ft | 603 kts | 57° |
| 2026-05-05 02:52 | 31.06795 | 130.33661 | 33174 ft | 602 kts | 57° |
| 2026-05-05 02:52 | 31.11184 | 130.41986 | 33198 ft | 603 kts | 57° |
| 2026-05-05 02:53 | 31.15565 | 130.50317 | 33183 ft | 603 kts | 57° |
| 2026-05-05 02:53 | 31.19941 | 130.58657 | 33183 ft | 603 kts | 57° |
| 2026-05-05 02:54 | 31.24307 | 130.66997 | 33188 ft | 603 kts | 57° |
| 2026-05-05 02:54 | 31.28688 | 130.75382 | 33184 ft | 603 kts | 57° |
| 2026-05-05 02:55 | 31.33052 | 130.83752 | 33184 ft | 603 kts | 57° |
| 2026-05-05 02:55 | 31.37389 | 130.92088 | 33192 ft | 603 kts | 57° |
| 2026-05-05 02:56 | 31.41769 | 131.00527 | 33199 ft | 603 kts | 57° |
| 2026-05-05 02:56 | 31.46089 | 131.08870 | 33197 ft | 602 kts | 57° |
| 2026-05-05 02:57 | 31.50447 | 131.17303 | 33201 ft | 602 kts | 57° |
| 2026-05-05 02:57 | 31.54756 | 131.25657 | 33201 ft | 602 kts | 57° |
| 2026-05-05 02:58 | 31.58376 | 131.32693 | 33202 ft | 602 kts | 57° |
| 2026-05-05 02:58 | 31.62695 | 131.41116 | 33195 ft | 602 kts | 57° |
| 2026-05-05 02:59 | 31.67011 | 131.49553 | 33199 ft | 602 kts | 57° |
| 2026-05-05 02:59 | 31.71313 | 131.57968 | 33190 ft | 602 kts | 57° |
| 2026-05-05 03:00 | 31.75616 | 131.66404 | 33193 ft | 601 kts | 57° |
| 2026-05-05 03:00 | 31.79907 | 131.74841 | 33197 ft | 601 kts | 57° |
| 2026-05-05 03:01 | 31.84193 | 131.83288 | 33201 ft | 601 kts | 57° |
| 2026-05-05 03:01 | 31.88469 | 131.91734 | 33206 ft | 601 kts | 57° |
| 2026-05-05 03:02 | 31.92733 | 132.00176 | 33202 ft | 601 kts | 57° |
| 2026-05-05 03:02 | 31.96994 | 132.08631 | 33200 ft | 600 kts | 57° |
| 2026-05-05 03:03 | 32.01251 | 132.17097 | 33203 ft | 600 kts | 57° |
| 2026-05-05 03:03 | 32.05477 | 132.25519 | 33206 ft | 600 kts | 57° |
| 2026-05-05 03:04 | 32.09712 | 132.33978 | 33203 ft | 600 kts | 57° |
| 2026-05-05 03:04 | 32.13966 | 132.42536 | 33205 ft | 601 kts | 59° |
| 2026-05-05 03:05 | 32.17770 | 132.51344 | 33201 ft | 602 kts | 63° |
| 2026-05-05 03:05 | 32.21342 | 132.60205 | 33204 ft | 602 kts | 63° |
| 2026-05-05 03:06 | 32.24998 | 132.69075 | 33203 ft | 602 kts | 62° |
| 2026-05-05 03:06 | 32.28737 | 132.77961 | 33199 ft | 602 kts | 62° |
| 2026-05-05 03:07 | 32.32479 | 132.86824 | 33200 ft | 602 kts | 62° |
| 2026-05-05 03:07 | 32.36207 | 132.95696 | 33205 ft | 603 kts | 62° |
| 2026-05-05 03:08 | 32.39920 | 133.04569 | 33203 ft | 603 kts | 62° |
| 2026-05-05 03:08 | 32.43638 | 133.13480 | 33201 ft | 603 kts | 62° |
| 2026-05-05 03:09 | 32.47344 | 133.22387 | 33203 ft | 603 kts | 62° |
| 2026-05-05 03:09 | 32.51051 | 133.31314 | 33203 ft | 604 kts | 62° |
| 2026-05-05 03:10 | 32.54747 | 133.40236 | 33183 ft | 604 kts | 62° |
| 2026-05-05 03:10 | 32.58440 | 133.49189 | 33214 ft | 604 kts | 62° |
| 2026-05-05 03:11 | 32.62133 | 133.58151 | 33193 ft | 604 kts | 62° |
| 2026-05-05 03:11 | 32.65815 | 133.67110 | 33208 ft | 604 kts | 63° |
| 2026-05-05 03:12 | 32.69495 | 133.76077 | 33208 ft | 604 kts | 63° |
| 2026-05-05 03:12 | 32.73173 | 133.85058 | 33215 ft | 604 kts | 63° |
| 2026-05-05 03:13 | 32.76842 | 133.94047 | 33200 ft | 605 kts | 63° |
| 2026-05-05 03:13 | 32.80506 | 134.03052 | 33210 ft | 605 kts | 63° |
| 2026-05-05 03:14 | 32.83507 | 134.12395 | 33208 ft | 606 kts | 72° |
| 2026-05-05 03:14 | 32.85941 | 134.21913 | 33218 ft | 606 kts | 74° |
| 2026-05-05 03:15 | 32.88309 | 134.31553 | 33218 ft | 607 kts | 74° |
| 2026-05-05 03:15 | 32.90679 | 134.41203 | 33214 ft | 607 kts | 74° |
| 2026-05-05 03:16 | 32.93059 | 134.50849 | 33210 ft | 607 kts | 74° |
| 2026-05-05 03:16 | 32.95439 | 134.60500 | 33216 ft | 608 kts | 74° |
| 2026-05-05 03:17 | 32.97811 | 134.70155 | 33212 ft | 608 kts | 74° |
| 2026-05-05 03:17 | 33.00173 | 134.79816 | 33216 ft | 608 kts | 74° |
| 2026-05-05 03:18 | 33.02529 | 134.89490 | 33214 ft | 608 kts | 74° |
| 2026-05-05 03:18 | 33.04881 | 134.99180 | 33215 ft | 609 kts | 74° |
| 2026-05-05 03:19 | 33.08479 | 135.13693 | 33212 ft | 609 kts | 68° |
| 2026-05-05 03:19 | 33.10306 | 135.18217 | 33216 ft | 604 kts | 55° |
| 2026-05-05 03:19 | 33.12789 | 135.22204 | 33216 ft | 595 kts | 41° |
| 2026-05-05 03:20 | 33.18988 | 135.28529 | 33216 ft | 585 kts | 30° |
| 2026-05-05 03:20 | 33.25496 | 135.34354 | 33211 ft | 584 kts | 29° |
| 2026-05-05 03:21 | 33.32028 | 135.40152 | 33209 ft | 585 kts | 30° |
| 2026-05-05 03:21 | 33.38530 | 135.46006 | 33206 ft | 585 kts | 30° |
| 2026-05-05 03:22 | 33.45000 | 135.51883 | 33200 ft | 585 kts | 30° |
| 2026-05-05 03:22 | 33.51484 | 135.57798 | 33196 ft | 585 kts | 30° |
| 2026-05-05 03:23 | 33.57955 | 135.63710 | 33199 ft | 585 kts | 30° |
| 2026-05-05 03:23 | 33.64423 | 135.69630 | 33185 ft | 584 kts | 30° |
| 2026-05-05 03:24 | 33.70896 | 135.75544 | 33190 ft | 585 kts | 30° |
| 2026-05-05 03:24 | 33.77371 | 135.81371 | 33181 ft | 585 kts | 30° |
| 2026-05-05 03:25 | 33.83885 | 135.87248 | 33210 ft | 585 kts | 30° |
| 2026-05-05 03:25 | 33.90402 | 135.93143 | 33186 ft | 587 kts | 30° |
| 2026-05-05 03:26 | 33.96923 | 135.99059 | 33192 ft | 588 kts | 30° |
| 2026-05-05 03:26 | 34.03468 | 136.05013 | 33180 ft | 590 kts | 30° |
| 2026-05-05 03:27 | 34.10008 | 136.10976 | 33189 ft | 591 kts | 30° |
| 2026-05-05 03:27 | 34.16565 | 136.16973 | 33197 ft | 591 kts | 29° |
| 2026-05-05 03:28 | 34.23103 | 136.22964 | 33184 ft | 590 kts | 29° |
| 2026-05-05 03:28 | 34.29667 | 136.28940 | 33181 ft | 591 kts | 30° |
| 2026-05-05 03:29 | 34.36247 | 136.34923 | 33195 ft | 592 kts | 30° |
| 2026-05-05 03:29 | 34.42816 | 136.40925 | 33194 ft | 592 kts | 30° |
| 2026-05-05 03:30 | 34.49406 | 136.46925 | 33201 ft | 592 kts | 29° |
| 2026-05-05 03:30 | 34.55995 | 136.52920 | 33199 ft | 593 kts | 29° |
| 2026-05-05 03:31 | 34.62602 | 136.58944 | 33192 ft | 592 kts | 29° |
| 2026-05-05 03:31 | 34.69132 | 136.64933 | 33190 ft | 592 kts | 30° |
| 2026-05-05 03:32 | 34.75694 | 136.70973 | 33179 ft | 591 kts | 30° |
| 2026-05-05 03:32 | 34.82233 | 136.77004 | 33188 ft | 591 kts | 30° |
| 2026-05-05 03:33 | 34.88794 | 136.83033 | 33186 ft | 588 kts | 28° |
| 2026-05-05 03:33 | 34.95478 | 136.88724 | 33187 ft | 585 kts | 26° |
| 2026-05-05 03:34 | 35.02196 | 136.94312 | 33188 ft | 585 kts | 27° |
| 2026-05-05 03:34 | 35.08887 | 136.99966 | 33180 ft | 584 kts | 27° |
| 2026-05-05 03:35 | 35.15543 | 137.05661 | 33180 ft | 583 kts | 27° |
| 2026-05-05 03:35 | 35.22172 | 137.11358 | 33179 ft | 582 kts | 28° |
| 2026-05-05 03:36 | 35.28778 | 137.17041 | 33177 ft | 580 kts | 28° |
| 2026-05-05 03:36 | 35.35339 | 137.22833 | 33174 ft | 584 kts | 34° |
| 2026-05-05 03:37 | 35.38239 | 137.26317 | 33178 ft | 593 kts | 45° |
| 2026-05-05 03:37 | 35.40632 | 137.30471 | 33180 ft | 598 kts | 59° |
| 2026-05-05 03:37 | 35.44349 | 137.39604 | 33173 ft | 600 kts | 64° |
| 2026-05-05 03:38 | 35.47806 | 137.48951 | 33176 ft | 601 kts | 64° |
| 2026-05-05 03:38 | 35.51253 | 137.58218 | 33174 ft | 601 kts | 64° |
| 2026-05-05 03:39 | 35.54780 | 137.67521 | 33161 ft | 600 kts | 63° |
| 2026-05-05 03:39 | 35.58311 | 137.76809 | 33175 ft | 601 kts | 63° |
| 2026-05-05 03:40 | 35.61806 | 137.86140 | 33168 ft | 600 kts | 64° |
| 2026-05-05 03:40 | 35.65160 | 137.95524 | 33167 ft | 600 kts | 65° |
| 2026-05-05 03:41 | 35.68505 | 138.04901 | 33176 ft | 601 kts | 64° |
| 2026-05-05 03:41 | 35.72101 | 138.14213 | 33160 ft | 601 kts | 62° |
| 2026-05-05 03:42 | 35.75742 | 138.23439 | 33181 ft | 600 kts | 63° |
| 2026-05-05 03:42 | 35.79318 | 138.32685 | 33181 ft | 599 kts | 63° |
| 2026-05-05 03:43 | 35.82894 | 138.42013 | 33173 ft | 600 kts | 63° |
| 2026-05-05 03:43 | 35.86449 | 138.51327 | 33180 ft | 601 kts | 63° |
| 2026-05-05 03:44 | 35.90002 | 138.60660 | 33182 ft | 601 kts | 63° |
| 2026-05-05 03:44 | 35.93523 | 138.69961 | 33190 ft | 602 kts | 63° |
| 2026-05-05 03:45 | 35.96476 | 138.77784 | 33179 ft | 602 kts | 64° |
| 2026-05-05 03:45 | 35.99993 | 138.87137 | 33174 ft | 600 kts | 64° |
| 2026-05-05 03:46 | 36.04077 | 138.98041 | 33204 ft | 599 kts | 64° |
| 2026-05-05 03:46 | 36.06990 | 139.05817 | 33201 ft | 600 kts | 64° |
| 2026-05-05 03:47 | 36.10496 | 139.15192 | 33199 ft | 601 kts | 64° |
| 2026-05-05 03:47 | 36.13902 | 139.24340 | 33208 ft | 601 kts | 64° |
| 2026-05-05 03:48 | 36.17831 | 139.33402 | 33215 ft | 597 kts | 52° |
| 2026-05-05 03:48 | 36.22614 | 139.41786 | 33196 ft | 596 kts | 50° |
| 2026-05-05 03:49 | 36.27512 | 139.50081 | 33194 ft | 596 kts | 50° |
| 2026-05-05 03:49 | 36.32396 | 139.58358 | 33188 ft | 595 kts | 50° |
| 2026-05-05 03:50 | 36.37259 | 139.66666 | 33182 ft | 595 kts | 50° |
| 2026-05-05 03:50 | 36.42096 | 139.74962 | 33181 ft | 594 kts | 50° |
| 2026-05-05 03:51 | 36.46976 | 139.83287 | 33179 ft | 594 kts | 50° |
| 2026-05-05 03:51 | 36.51781 | 139.91631 | 33174 ft | 595 kts | 52° |
| 2026-05-05 03:52 | 36.56297 | 140.00243 | 33172 ft | 595 kts | 54° |
| 2026-05-05 03:52 | 36.60764 | 140.08924 | 33163 ft | 595 kts | 54° |
| 2026-05-05 03:53 | 36.65277 | 140.17560 | 33186 ft | 595 kts | 53° |
| 2026-05-05 03:53 | 36.69822 | 140.26189 | 33171 ft | 595 kts | 53° |
| 2026-05-05 03:54 | 36.74266 | 140.34897 | 33168 ft | 598 kts | 60° |
| 2026-05-05 03:54 | 36.77813 | 140.44297 | 33169 ft | 599 kts | 64° |
| 2026-05-05 03:55 | 36.81182 | 140.53809 | 33173 ft | 599 kts | 65° |
| 2026-05-05 03:55 | 36.84514 | 140.63330 | 33173 ft | 599 kts | 64° |
| 2026-05-05 03:56 | 36.87860 | 140.72859 | 33173 ft | 599 kts | 64° |
| 2026-05-05 03:56 | 36.91183 | 140.82321 | 33178 ft | 599 kts | 64° |
| 2026-05-05 03:57 | 36.94525 | 140.91855 | 33191 ft | 598 kts | 64° |
| 2026-05-05 03:57 | 36.97883 | 141.01453 | 33189 ft | 599 kts | 64° |
| 2026-05-05 03:58 | 37.01181 | 141.10925 | 33196 ft | 600 kts | 64° |
| 2026-05-05 03:58 | 37.04517 | 141.20553 | 33196 ft | 601 kts | 65° |
| 2026-05-05 03:59 | 37.07838 | 141.30162 | 33204 ft | 602 kts | 65° |
| 2026-05-05 03:59 | 37.11160 | 141.39799 | 33208 ft | 604 kts | 65° |
| 2026-05-05 04:00 | 37.14476 | 141.49452 | 33206 ft | 603 kts | 65° |
| 2026-05-05 04:00 | 37.17789 | 141.59126 | 33207 ft | 603 kts | 65° |
| 2026-05-05 04:01 | 37.21086 | 141.68786 | 33207 ft | 603 kts | 65° |
| 2026-05-05 04:01 | 37.24382 | 141.78472 | 33212 ft | 603 kts | 65° |
| 2026-05-05 04:02 | 37.27662 | 141.88144 | 33209 ft | 602 kts | 65° |
| 2026-05-05 04:02 | 37.30935 | 141.97829 | 33211 ft | 602 kts | 65° |
| 2026-05-05 04:03 | 37.34195 | 142.07503 | 33211 ft | 602 kts | 65° |
| 2026-05-05 04:03 | 37.37454 | 142.17208 | 33212 ft | 603 kts | 66° |
| 2026-05-05 04:04 | 37.40703 | 142.26917 | 33210 ft | 603 kts | 66° |
| 2026-05-05 04:04 | 37.43954 | 142.36662 | 33207 ft | 603 kts | 66° |
| 2026-05-05 04:05 | 37.47189 | 142.46388 | 33212 ft | 603 kts | 66° |
| 2026-05-05 04:05 | 37.50411 | 142.56114 | 33214 ft | 604 kts | 66° |
| 2026-05-05 04:06 | 37.53645 | 142.65909 | 33214 ft | 604 kts | 66° |
| 2026-05-05 04:06 | 37.56860 | 142.75687 | 33204 ft | 604 kts | 66° |
| 2026-05-05 04:07 | 37.60016 | 142.85510 | 33212 ft | 605 kts | 67° |
| 2026-05-05 04:07 | 37.63152 | 142.95376 | 33205 ft | 606 kts | 67° |
| 2026-05-05 04:08 | 37.66293 | 143.05263 | 33217 ft | 607 kts | 67° |
| 2026-05-05 04:08 | 37.69432 | 143.15144 | 33204 ft | 607 kts | 68° |
| 2026-05-05 04:09 | 37.72559 | 143.25032 | 33216 ft | 608 kts | 68° |
| 2026-05-05 04:09 | 37.75700 | 143.34988 | 33206 ft | 608 kts | 68° |
| 2026-05-05 04:10 | 37.78821 | 143.44917 | 33215 ft | 608 kts | 68° |
| 2026-05-05 04:10 | 37.81931 | 143.54847 | 33201 ft | 608 kts | 68° |
| 2026-05-05 04:11 | 37.84801 | 143.64905 | 33209 ft | 608 kts | 72° |
| 2026-05-05 04:11 | 37.87416 | 143.75026 | 33210 ft | 608 kts | 72° |
| 2026-05-05 04:12 | 37.90077 | 143.85244 | 33210 ft | 608 kts | 72° |
| 2026-05-05 04:12 | 37.92750 | 143.95300 | 33200 ft | 609 kts | 72° |
| 2026-05-05 04:13 | 37.95477 | 144.05514 | 33205 ft | 609 kts | 72° |
| 2026-05-05 04:13 | 37.98178 | 144.15678 | 33192 ft | 610 kts | 72° |
| 2026-05-05 04:14 | 38.00870 | 144.25867 | 33204 ft | 610 kts | 72° |
| 2026-05-05 04:14 | 38.03560 | 144.36099 | 33193 ft | 611 kts | 72° |
| 2026-05-05 04:15 | 38.06240 | 144.46336 | 33216 ft | 612 kts | 72° |
| 2026-05-05 04:15 | 38.08912 | 144.56580 | 33203 ft | 612 kts | 73° |
| 2026-05-05 04:16 | 38.11587 | 144.66875 | 33196 ft | 613 kts | 73° |
| 2026-05-05 04:16 | 38.14245 | 144.77150 | 33185 ft | 614 kts | 73° |
| 2026-05-05 04:17 | 38.16906 | 144.87476 | 33198 ft | 614 kts | 73° |
| 2026-05-05 04:17 | 38.19552 | 144.97786 | 33185 ft | 614 kts | 73° |
| 2026-05-05 04:18 | 38.22193 | 145.08123 | 33188 ft | 615 kts | 73° |
| 2026-05-05 04:18 | 38.24823 | 145.18457 | 33183 ft | 615 kts | 73° |
| 2026-05-05 04:19 | 38.27447 | 145.28814 | 33190 ft | 615 kts | 74° |
| 2026-05-05 04:19 | 38.30062 | 145.39177 | 33177 ft | 615 kts | 74° |
| 2026-05-05 04:20 | 38.33014 | 145.49287 | 33207 ft | 616 kts | 60° |
| 2026-05-05 04:20 | 38.35409 | 145.53918 | 33431 ft | 611 kts | 47° |
| 2026-05-05 04:20 | 38.38281 | 145.57855 | 33644 ft | 605 kts | 41° |
| 2026-05-05 04:21 | 38.41293 | 145.61593 | 33872 ft | 602 kts | 39° |
| 2026-05-05 04:21 | 38.44356 | 145.65213 | 34054 ft | 601 kts | 37° |
| 2026-05-05 04:21 | 38.47458 | 145.68801 | 34175 ft | 602 kts | 37° |
| 2026-05-05 04:21 | 38.50527 | 145.72338 | 34170 ft | 605 kts | 37° |
| 2026-05-05 04:22 | 38.56771 | 145.79612 | 34178 ft | 608 kts | 38° |
| 2026-05-05 04:22 | 38.63004 | 145.86993 | 34171 ft | 607 kts | 38° |
| 2026-05-05 04:23 | 38.69150 | 145.94322 | 34175 ft | 607 kts | 38° |
| 2026-05-05 04:23 | 38.75304 | 146.01673 | 34163 ft | 607 kts | 39° |
| 2026-05-05 04:24 | 38.81489 | 146.09072 | 34172 ft | 607 kts | 39° |
| 2026-05-05 04:25 | 38.90748 | 146.20178 | 34166 ft | 607 kts | 39° |
| 2026-05-05 04:25 | 38.96885 | 146.27562 | 34160 ft | 607 kts | 39° |
| 2026-05-05 04:25 | 38.99977 | 146.31290 | 34461 ft | 607 kts | 38° |
| 2026-05-05 04:26 | 39.03070 | 146.35027 | 34301 ft | 607 kts | 38° |
| 2026-05-05 04:26 | 39.06133 | 146.38730 | 34167 ft | 606 kts | 38° |
| 2026-05-05 04:26 | 39.09205 | 146.42447 | 34157 ft | 606 kts | 38° |
| 2026-05-05 04:27 | 39.15337 | 146.49880 | 34147 ft | 606 kts | 39° |
| 2026-05-05 04:27 | 39.21472 | 146.57337 | 34144 ft | 605 kts | 39° |
| 2026-05-05 04:28 | 39.27591 | 146.64794 | 34145 ft | 605 kts | 39° |
| 2026-05-05 04:28 | 39.33695 | 146.72252 | 34144 ft | 604 kts | 39° |
| 2026-05-05 04:29 | 39.39800 | 146.79729 | 34139 ft | 604 kts | 39° |
| 2026-05-05 04:29 | 39.45888 | 146.87203 | 34138 ft | 604 kts | 39° |
| 2026-05-05 04:30 | 39.51983 | 146.94706 | 34134 ft | 603 kts | 39° |
| 2026-05-05 04:30 | 39.58050 | 147.02195 | 34127 ft | 603 kts | 39° |
| 2026-05-05 04:31 | 39.63094 | 147.08434 | 34126 ft | 604 kts | 39° |
| 2026-05-05 04:31 | 39.70159 | 147.17195 | 34121 ft | 604 kts | 39° |
| 2026-05-05 04:32 | 39.75246 | 147.23520 | 34123 ft | 604 kts | 39° |
| 2026-05-05 04:32 | 39.81312 | 147.31079 | 34119 ft | 604 kts | 40° |
| 2026-05-05 04:33 | 39.87368 | 147.38647 | 34114 ft | 604 kts | 40° |
| 2026-05-05 04:33 | 39.94394 | 147.47451 | 34111 ft | 603 kts | 40° |
| 2026-05-05 04:34 | 39.99464 | 147.53821 | 34112 ft | 603 kts | 40° |
| 2026-05-05 04:34 | 40.05460 | 147.61371 | 34105 ft | 603 kts | 40° |
| 2026-05-05 04:35 | 40.11526 | 147.69028 | 34101 ft | 603 kts | 40° |
| 2026-05-05 04:35 | 40.17555 | 147.76661 | 34096 ft | 603 kts | 40° |
| 2026-05-05 04:36 | 40.23543 | 147.84260 | 34094 ft | 604 kts | 40° |
| 2026-05-05 04:36 | 40.29569 | 147.91927 | 34097 ft | 604 kts | 40° |
| 2026-05-05 04:37 | 40.35584 | 147.99601 | 34094 ft | 604 kts | 40° |
| 2026-05-05 04:37 | 40.41637 | 148.07344 | 34090 ft | 604 kts | 41° |
| 2026-05-05 04:38 | 40.47599 | 148.14992 | 34088 ft | 604 kts | 41° |
| 2026-05-05 04:38 | 40.53580 | 148.22681 | 34083 ft | 603 kts | 41° |
| 2026-05-05 04:39 | 40.59599 | 148.30441 | 34077 ft | 603 kts | 41° |
| 2026-05-05 04:39 | 40.65582 | 148.38175 | 34076 ft | 603 kts | 41° |
| 2026-05-05 04:40 | 40.71554 | 148.45916 | 34071 ft | 603 kts | 41° |
| 2026-05-05 04:40 | 40.77537 | 148.53692 | 34072 ft | 604 kts | 41° |
| 2026-05-05 04:41 | 40.83525 | 148.61495 | 34068 ft | 604 kts | 41° |
| 2026-05-05 04:41 | 40.89483 | 148.69280 | 34066 ft | 603 kts | 41° |
| 2026-05-05 04:42 | 40.95451 | 148.77098 | 34060 ft | 604 kts | 41° |
| 2026-05-05 04:42 | 41.01374 | 148.84879 | 34057 ft | 604 kts | 42° |
| 2026-05-05 04:43 | 41.07326 | 148.92719 | 34054 ft | 604 kts | 42° |
| 2026-05-05 04:43 | 41.13266 | 149.00568 | 34051 ft | 603 kts | 42° |
| 2026-05-05 04:44 | 41.19215 | 149.08454 | 34046 ft | 603 kts | 42° |
| 2026-05-05 04:44 | 41.25189 | 149.16393 | 34048 ft | 603 kts | 42° |
| 2026-05-05 04:45 | 41.31065 | 149.24223 | 34039 ft | 603 kts | 42° |
| 2026-05-05 04:45 | 41.37000 | 149.32154 | 34034 ft | 603 kts | 43° |
| 2026-05-05 04:46 | 41.42918 | 149.40085 | 34032 ft | 604 kts | 43° |
| 2026-05-05 04:46 | 41.48834 | 149.48033 | 34026 ft | 604 kts | 43° |
| 2026-05-05 04:47 | 41.54732 | 149.55981 | 34015 ft | 604 kts | 43° |
| 2026-05-05 04:47 | 41.60654 | 149.63982 | 34014 ft | 605 kts | 43° |
| 2026-05-05 04:48 | 41.66556 | 149.71979 | 34014 ft | 605 kts | 43° |
| 2026-05-05 04:48 | 41.72465 | 149.80006 | 34003 ft | 605 kts | 43° |
| 2026-05-05 04:49 | 41.78356 | 149.88031 | 34003 ft | 605 kts | 43° |
| 2026-05-05 04:49 | 41.84263 | 149.96102 | 33994 ft | 605 kts | 43° |
| 2026-05-05 04:50 | 41.90143 | 150.04158 | 33998 ft | 605 kts | 43° |
| 2026-05-05 04:50 | 41.96034 | 150.12251 | 33989 ft | 606 kts | 44° |
| 2026-05-05 04:51 | 42.01917 | 150.20355 | 33986 ft | 606 kts | 44° |
| 2026-05-05 04:51 | 42.07798 | 150.28480 | 33982 ft | 606 kts | 44° |
| 2026-05-05 04:52 | 42.13677 | 150.36627 | 33974 ft | 606 kts | 44° |
| 2026-05-05 04:52 | 42.19545 | 150.44781 | 33974 ft | 606 kts | 44° |
| 2026-05-05 04:53 | 42.25374 | 150.52903 | 33969 ft | 607 kts | 44° |
| 2026-05-05 04:53 | 42.31243 | 150.61104 | 33964 ft | 607 kts | 44° |
| 2026-05-05 04:54 | 42.37093 | 150.69301 | 33958 ft | 607 kts | 44° |
| 2026-05-05 04:54 | 42.42964 | 150.77552 | 33957 ft | 607 kts | 44° |
| 2026-05-05 04:54 | 42.45865 | 150.81642 | 33015 ft | 607 kts | 43° |
| 2026-05-05 04:55 | 42.48842 | 150.85852 | 33254 ft | 605 kts | 43° |
| 2026-05-05 04:55 | 42.51714 | 150.89910 | 33514 ft | 603 kts | 43° |
| 2026-05-05 04:55 | 42.54605 | 150.93998 | 33772 ft | 601 kts | 43° |
| 2026-05-05 04:55 | 42.57500 | 150.98096 | 33918 ft | 601 kts | 43° |
| 2026-05-05 04:56 | 42.60393 | 151.02194 | 33942 ft | 605 kts | 43° |
| 2026-05-05 04:56 | 42.66233 | 151.10489 | 33941 ft | 609 kts | 43° |
| 2026-05-05 04:57 | 42.72077 | 151.18824 | 33933 ft | 608 kts | 43° |
| 2026-05-05 04:57 | 42.77904 | 151.27160 | 33934 ft | 608 kts | 43° |
| 2026-05-05 04:58 | 42.83730 | 151.35516 | 33925 ft | 608 kts | 43° |
| 2026-05-05 04:58 | 42.89536 | 151.43867 | 33920 ft | 608 kts | 43° |
| 2026-05-05 04:59 | 42.95361 | 151.52269 | 33913 ft | 608 kts | 43° |
| 2026-05-05 04:59 | 43.01158 | 151.60656 | 33912 ft | 607 kts | 43° |
| 2026-05-05 05:00 | 43.06948 | 151.69060 | 33903 ft | 607 kts | 43° |
| 2026-05-05 05:00 | 43.12728 | 151.77472 | 33901 ft | 606 kts | 43° |
| 2026-05-05 05:01 | 43.18505 | 151.85905 | 33890 ft | 606 kts | 43° |
| 2026-05-05 05:01 | 43.24257 | 151.94326 | 33895 ft | 606 kts | 43° |
| 2026-05-05 05:02 | 43.30014 | 152.02779 | 33882 ft | 605 kts | 43° |
| 2026-05-05 05:02 | 43.35744 | 152.11218 | 33883 ft | 605 kts | 43° |
| 2026-05-05 05:03 | 43.41486 | 152.19699 | 33876 ft | 605 kts | 43° |
| 2026-05-05 05:03 | 43.47177 | 152.28131 | 33872 ft | 605 kts | 43° |
| 2026-05-05 05:04 | 43.52899 | 152.36633 | 33870 ft | 605 kts | 43° |
| 2026-05-05 05:04 | 43.58600 | 152.45131 | 33870 ft | 605 kts | 43° |
| 2026-05-05 05:04 | 43.61463 | 152.49405 | 34846 ft | 605 kts | 46° |
| 2026-05-05 05:05 | 43.64325 | 152.53685 | 33817 ft | 605 kts | 43° |
| 2026-05-05 05:05 | 43.70028 | 152.62240 | 33860 ft | 607 kts | 43° |
| 2026-05-05 05:06 | 43.75745 | 152.70838 | 33853 ft | 607 kts | 43° |
| 2026-05-05 05:06 | 43.81452 | 152.79447 | 33847 ft | 606 kts | 43° |
| 2026-05-05 05:07 | 43.87146 | 152.88063 | 33842 ft | 607 kts | 43° |
| 2026-05-05 05:07 | 43.92839 | 152.96704 | 33839 ft | 607 kts | 43° |
| 2026-05-05 05:08 | 43.98522 | 153.05356 | 33835 ft | 606 kts | 43° |
| 2026-05-05 05:08 | 44.04201 | 153.14029 | 33828 ft | 606 kts | 43° |
| 2026-05-05 05:09 | 44.09865 | 153.22705 | 33823 ft | 606 kts | 43° |
| 2026-05-05 05:09 | 44.15528 | 153.31406 | 33816 ft | 606 kts | 43° |
| 2026-05-05 05:10 | 44.21180 | 153.40117 | 33815 ft | 606 kts | 43° |
| 2026-05-05 05:10 | 44.26828 | 153.48849 | 33810 ft | 606 kts | 43° |
| 2026-05-05 05:11 | 44.32457 | 153.57580 | 33804 ft | 605 kts | 43° |
| 2026-05-05 05:11 | 44.38079 | 153.66326 | 33802 ft | 605 kts | 44° |
| 2026-05-05 05:12 | 44.43693 | 153.75087 | 33796 ft | 605 kts | 44° |
| 2026-05-05 05:12 | 44.49309 | 153.83878 | 33790 ft | 605 kts | 44° |
| 2026-05-05 05:13 | 44.54917 | 153.92684 | 33784 ft | 605 kts | 44° |
| 2026-05-05 05:13 | 44.60510 | 154.01495 | 33778 ft | 605 kts | 44° |
| 2026-05-05 05:14 | 44.66069 | 154.10278 | 33778 ft | 606 kts | 44° |
| 2026-05-05 05:14 | 44.71691 | 154.19189 | 33772 ft | 606 kts | 44° |
| 2026-05-05 05:15 | 44.77274 | 154.28066 | 33766 ft | 606 kts | 44° |
| 2026-05-05 05:15 | 44.82805 | 154.36892 | 33756 ft | 607 kts | 44° |
| 2026-05-05 05:15 | 44.85655 | 154.41450 | 33903 ft | 605 kts | 44° |
| 2026-05-05 05:16 | 44.88376 | 154.45835 | 34146 ft | 603 kts | 44° |
| 2026-05-05 05:16 | 44.91109 | 154.50311 | 34345 ft | 601 kts | 45° |
| 2026-05-05 05:16 | 44.93827 | 154.54804 | 34502 ft | 601 kts | 45° |
| 2026-05-05 05:16 | 44.96526 | 154.59284 | 34662 ft | 601 kts | 45° |
| 2026-05-05 05:17 | 44.99240 | 154.63789 | 34743 ft | 602 kts | 45° |
| 2026-05-05 05:17 | 45.04697 | 154.72838 | 34736 ft | 607 kts | 45° |
| 2026-05-05 05:18 | 45.10165 | 154.81918 | 34727 ft | 606 kts | 45° |
| 2026-05-05 05:18 | 45.15626 | 154.91018 | 34724 ft | 606 kts | 45° |
| 2026-05-05 05:19 | 45.20161 | 154.98594 | 34727 ft | 606 kts | 45° |
| 2026-05-05 05:19 | 45.25598 | 155.07706 | 34712 ft | 606 kts | 45° |
| 2026-05-05 05:20 | 45.31037 | 155.16850 | 34714 ft | 606 kts | 45° |
| 2026-05-05 05:20 | 45.36458 | 155.25995 | 34704 ft | 606 kts | 45° |
| 2026-05-05 05:21 | 45.41886 | 155.35181 | 34700 ft | 606 kts | 45° |
| 2026-05-05 05:21 | 45.47306 | 155.44384 | 34691 ft | 606 kts | 45° |
| 2026-05-05 05:22 | 45.52712 | 155.53592 | 34684 ft | 606 kts | 45° |
| 2026-05-05 05:22 | 45.58121 | 155.62839 | 34683 ft | 606 kts | 45° |
| 2026-05-05 05:23 | 45.63515 | 155.72088 | 34679 ft | 607 kts | 46° |
| 2026-05-05 05:23 | 45.68915 | 155.81378 | 35185 ft | 607 kts | 46° |
| 2026-05-05 05:23 | 45.71631 | 155.86029 | 35012 ft | 613 kts | 50° |
| 2026-05-05 05:24 | 45.74362 | 155.90739 | 34785 ft | 621 kts | 51° |
| 2026-05-05 05:24 | 45.77123 | 155.95527 | 34665 ft | 626 kts | 51° |
| 2026-05-05 05:24 | 45.79904 | 156.00361 | 34656 ft | 628 kts | 51° |
| 2026-05-05 05:25 | 45.85460 | 156.10036 | 34653 ft | 628 kts | 51° |
| 2026-05-05 05:25 | 45.91017 | 156.19732 | 34646 ft | 628 kts | 51° |
| 2026-05-05 05:26 | 45.96565 | 156.29441 | 34649 ft | 629 kts | 51° |
| 2026-05-05 05:26 | 46.02099 | 156.39159 | 34642 ft | 629 kts | 51° |
| 2026-05-05 05:27 | 46.07633 | 156.48911 | 34635 ft | 629 kts | 51° |
| 2026-05-05 05:27 | 46.15923 | 156.63588 | 34631 ft | 629 kts | 51° |
| 2026-05-05 05:28 | 46.21429 | 156.73378 | 34622 ft | 629 kts | 52° |
| 2026-05-05 05:28 | 46.26938 | 156.83208 | 34617 ft | 629 kts | 52° |
| 2026-05-05 05:29 | 46.32439 | 156.93060 | 34610 ft | 629 kts | 52° |
| 2026-05-05 05:29 | 46.37930 | 157.02928 | 34603 ft | 630 kts | 52° |
| 2026-05-05 05:30 | 46.43414 | 157.12818 | 34602 ft | 630 kts | 52° |
| 2026-05-05 05:30 | 46.48892 | 157.22733 | 34593 ft | 630 kts | 52° |
| 2026-05-05 05:31 | 46.54364 | 157.32672 | 34586 ft | 630 kts | 52° |
| 2026-05-05 05:31 | 46.59791 | 157.42564 | 34584 ft | 631 kts | 52° |
| 2026-05-05 05:32 | 46.65290 | 157.52625 | 34580 ft | 631 kts | 52° |
| 2026-05-05 05:32 | 46.70704 | 157.62566 | 34576 ft | 630 kts | 52° |
| 2026-05-05 05:33 | 46.76140 | 157.72584 | 34568 ft | 630 kts | 52° |
| 2026-05-05 05:33 | 46.81574 | 157.82633 | 34564 ft | 630 kts | 53° |
| 2026-05-05 05:34 | 46.86987 | 157.92679 | 34559 ft | 631 kts | 53° |
| 2026-05-05 05:34 | 46.92408 | 158.02778 | 34559 ft | 631 kts | 53° |
| 2026-05-05 05:35 | 46.97815 | 158.12889 | 34556 ft | 631 kts | 53° |
| 2026-05-05 05:35 | 47.03219 | 158.23030 | 34545 ft | 631 kts | 53° |
| 2026-05-05 05:36 | 47.08614 | 158.33193 | 34542 ft | 631 kts | 53° |
| 2026-05-05 05:36 | 47.13982 | 158.43342 | 34541 ft | 631 kts | 53° |
| 2026-05-05 05:37 | 47.19373 | 158.53573 | 34532 ft | 631 kts | 53° |
| 2026-05-05 05:37 | 47.24733 | 158.63783 | 34537 ft | 631 kts | 53° |
| 2026-05-05 05:38 | 47.30091 | 158.74026 | 34535 ft | 631 kts | 53° |
| 2026-05-05 05:38 | 47.35432 | 158.84274 | 34524 ft | 631 kts | 54° |
| 2026-05-05 05:39 | 47.40773 | 158.94562 | 34513 ft | 631 kts | 54° |
| 2026-05-05 05:39 | 47.46099 | 159.04860 | 34519 ft | 631 kts | 54° |
| 2026-05-05 05:40 | 47.51416 | 159.15178 | 34513 ft | 631 kts | 54° |
| 2026-05-05 05:40 | 47.56733 | 159.25536 | 34512 ft | 631 kts | 54° |
| 2026-05-05 05:41 | 47.61998 | 159.35830 | 34508 ft | 631 kts | 54° |
| 2026-05-05 05:41 | 47.67291 | 159.46218 | 34506 ft | 631 kts | 54° |
| 2026-05-05 05:42 | 47.72571 | 159.56621 | 34502 ft | 631 kts | 54° |
| 2026-05-05 05:42 | 47.77879 | 159.67120 | 34499 ft | 631 kts | 54° |
| 2026-05-05 05:43 | 47.83108 | 159.77501 | 34497 ft | 631 kts | 54° |
| 2026-05-05 05:43 | 47.88364 | 159.87976 | 34498 ft | 631 kts | 55° |
| 2026-05-05 05:44 | 47.93605 | 159.98463 | 34488 ft | 631 kts | 55° |
| 2026-05-05 05:44 | 47.98839 | 160.08974 | 34498 ft | 631 kts | 55° |
| 2026-05-05 05:45 | 48.04071 | 160.19521 | 34479 ft | 631 kts | 55° |
| 2026-05-05 05:45 | 48.09286 | 160.30078 | 34490 ft | 631 kts | 55° |
| 2026-05-05 05:46 | 48.14486 | 160.40643 | 34480 ft | 631 kts | 55° |
| 2026-05-05 05:46 | 48.19682 | 160.51242 | 34480 ft | 631 kts | 56° |
| 2026-05-05 05:47 | 48.24876 | 160.61878 | 34479 ft | 631 kts | 56° |
| 2026-05-05 05:47 | 48.30040 | 160.72527 | 34482 ft | 631 kts | 56° |
| 2026-05-05 05:48 | 48.35047 | 160.83352 | 34479 ft | 631 kts | 58° |
| 2026-05-05 05:48 | 48.39985 | 160.94254 | 34479 ft | 630 kts | 58° |
| 2026-05-05 05:49 | 48.44924 | 161.05122 | 34480 ft | 630 kts | 58° |
| 2026-05-05 05:49 | 48.49903 | 161.16045 | 34478 ft | 630 kts | 58° |
| 2026-05-05 05:50 | 48.54861 | 161.26949 | 34480 ft | 630 kts | 58° |
| 2026-05-05 05:50 | 48.59806 | 161.37878 | 34482 ft | 630 kts | 58° |
| 2026-05-05 05:51 | 48.64740 | 161.48833 | 34481 ft | 630 kts | 58° |
| 2026-05-05 05:51 | 48.69648 | 161.59778 | 34483 ft | 630 kts | 58° |
| 2026-05-05 05:52 | 48.74568 | 161.70791 | 34479 ft | 630 kts | 58° |
| 2026-05-05 05:52 | 48.79471 | 161.81811 | 34485 ft | 630 kts | 58° |
| 2026-05-05 05:53 | 48.84365 | 161.92856 | 34482 ft | 630 kts | 58° |
| 2026-05-05 05:53 | 48.89241 | 162.03906 | 34486 ft | 630 kts | 59° |
| 2026-05-05 05:54 | 48.94078 | 162.14915 | 34484 ft | 630 kts | 59° |
| 2026-05-05 05:54 | 48.98971 | 162.26093 | 34488 ft | 630 kts | 59° |
| 2026-05-05 05:55 | 49.03791 | 162.37154 | 34496 ft | 630 kts | 59° |
| 2026-05-05 05:55 | 49.08656 | 162.48363 | 34495 ft | 630 kts | 59° |
| 2026-05-05 05:56 | 49.13479 | 162.59523 | 34497 ft | 630 kts | 59° |
| 2026-05-05 05:56 | 49.18269 | 162.70652 | 34506 ft | 630 kts | 59° |
| 2026-05-05 05:57 | 49.23072 | 162.81859 | 34507 ft | 630 kts | 59° |
| 2026-05-05 05:57 | 49.27854 | 162.93064 | 34515 ft | 629 kts | 59° |
| 2026-05-05 05:58 | 49.32637 | 163.04316 | 34513 ft | 629 kts | 59° |
| 2026-05-05 05:58 | 49.37393 | 163.15554 | 34524 ft | 629 kts | 59° |
| 2026-05-05 05:59 | 49.42151 | 163.26843 | 34530 ft | 629 kts | 59° |
| 2026-05-05 05:59 | 49.46885 | 163.38124 | 34535 ft | 629 kts | 60° |
| 2026-05-05 06:00 | 49.51617 | 163.49450 | 34539 ft | 629 kts | 60° |
| 2026-05-05 06:00 | 49.56327 | 163.60772 | 34546 ft | 628 kts | 60° |
| 2026-05-05 06:01 | 49.61031 | 163.72125 | 34548 ft | 628 kts | 60° |
| 2026-05-05 06:01 | 49.65717 | 163.83484 | 34556 ft | 627 kts | 60° |
| 2026-05-05 06:02 | 49.70390 | 163.94860 | 34566 ft | 627 kts | 60° |
| 2026-05-05 06:02 | 49.75043 | 164.06239 | 34569 ft | 627 kts | 60° |
| 2026-05-05 06:03 | 49.79690 | 164.17650 | 34579 ft | 626 kts | 60° |
| 2026-05-05 06:03 | 49.84318 | 164.29064 | 34586 ft | 626 kts | 60° |
| 2026-05-05 06:04 | 49.88159 | 164.38574 | 34590 ft | 626 kts | 60° |
| 2026-05-05 06:04 | 49.92766 | 164.50027 | 34682 ft | 626 kts | 60° |
| 2026-05-05 06:05 | 49.97367 | 164.61516 | 34605 ft | 626 kts | 60° |
| 2026-05-05 06:05 | 50.01948 | 164.73004 | 34620 ft | 626 kts | 60° |
| 2026-05-05 06:06 | 50.07259 | 164.86387 | 34629 ft | 625 kts | 60° |
| 2026-05-05 06:06 | 50.11079 | 164.96057 | 34635 ft | 625 kts | 60° |
| 2026-05-05 06:07 | 50.15598 | 165.07540 | 34641 ft | 625 kts | 60° |
| 2026-05-05 06:07 | 50.18148 | 165.13132 | 34656 ft | 625 kts | 47° |
| 2026-05-05 06:07 | 50.21026 | 165.18203 | 34654 ft | 623 kts | 46° |
| 2026-05-05 06:08 | 50.26911 | 165.28114 | 34661 ft | 623 kts | 44° |
| 2026-05-05 06:08 | 50.32875 | 165.37944 | 34669 ft | 623 kts | 44° |
| 2026-05-05 06:09 | 50.38820 | 165.47802 | 34679 ft | 622 kts | 44° |
| 2026-05-05 06:09 | 50.44703 | 165.57658 | 34686 ft | 622 kts | 45° |
| 2026-05-05 06:10 | 50.50597 | 165.67593 | 34695 ft | 621 kts | 45° |
| 2026-05-05 06:10 | 50.56468 | 165.77525 | 34708 ft | 621 kts | 45° |
| 2026-05-05 06:11 | 50.62341 | 165.87494 | 34713 ft | 620 kts | 45° |
| 2026-05-05 06:11 | 50.68195 | 165.97469 | 34724 ft | 620 kts | 44° |
| 2026-05-05 06:12 | 50.74034 | 166.07456 | 34734 ft | 620 kts | 44° |
| 2026-05-05 06:12 | 50.79877 | 166.17491 | 34745 ft | 620 kts | 44° |
| 2026-05-05 06:13 | 50.85710 | 166.27549 | 34756 ft | 620 kts | 44° |
| 2026-05-05 06:13 | 50.91530 | 166.37625 | 34765 ft | 619 kts | 44° |
| 2026-05-05 06:14 | 50.97333 | 166.47712 | 34771 ft | 618 kts | 44° |
| 2026-05-05 06:14 | 51.03116 | 166.57803 | 34782 ft | 618 kts | 44° |
| 2026-05-05 06:15 | 51.08886 | 166.67913 | 34786 ft | 617 kts | 44° |
| 2026-05-05 06:15 | 51.14642 | 166.78038 | 34799 ft | 617 kts | 44° |
| 2026-05-05 06:16 | 51.20379 | 166.88170 | 34807 ft | 615 kts | 44° |
| 2026-05-05 06:16 | 51.26091 | 166.98299 | 34815 ft | 614 kts | 44° |
| 2026-05-05 06:17 | 51.31795 | 167.08454 | 34818 ft | 613 kts | 44° |
| 2026-05-05 06:17 | 51.37438 | 167.18542 | 34829 ft | 612 kts | 44° |
| 2026-05-05 06:18 | 51.43133 | 167.28762 | 34832 ft | 611 kts | 44° |
| 2026-05-05 06:18 | 51.48770 | 167.38920 | 34849 ft | 609 kts | 44° |
| 2026-05-05 06:19 | 51.54354 | 167.49024 | 34850 ft | 607 kts | 45° |
| 2026-05-05 06:19 | 51.59979 | 167.59243 | 34861 ft | 605 kts | 45° |
| 2026-05-05 06:20 | 51.65539 | 167.69385 | 34863 ft | 603 kts | 45° |
| 2026-05-05 06:20 | 51.71034 | 167.79447 | 34873 ft | 601 kts | 45° |
| 2026-05-05 06:21 | 51.76581 | 167.89645 | 34880 ft | 600 kts | 45° |
| 2026-05-05 06:21 | 51.82031 | 167.99707 | 34885 ft | 598 kts | 45° |
| 2026-05-05 06:22 | 51.87492 | 168.09829 | 34889 ft | 596 kts | 45° |
| 2026-05-05 06:22 | 51.92922 | 168.19933 | 34896 ft | 594 kts | 45° |
| 2026-05-05 06:23 | 51.98333 | 168.30043 | 34897 ft | 591 kts | 45° |
| 2026-05-05 06:23 | 52.03703 | 168.40116 | 34905 ft | 589 kts | 45° |
| 2026-05-05 06:24 | 52.09056 | 168.50198 | 34913 ft | 587 kts | 45° |
| 2026-05-05 06:24 | 52.14368 | 168.60243 | 34917 ft | 585 kts | 45° |
| 2026-05-05 06:25 | 52.19670 | 168.70310 | 34923 ft | 583 kts | 45° |
| 2026-05-05 06:25 | 52.24934 | 168.80345 | 34931 ft | 581 kts | 45° |
| 2026-05-05 06:26 | 52.30172 | 168.90368 | 34939 ft | 580 kts | 45° |
| 2026-05-05 06:26 | 52.35374 | 169.00362 | 34943 ft | 578 kts | 45° |
| 2026-05-05 06:27 | 52.43173 | 169.15421 | 34951 ft | 575 kts | 45° |
| 2026-05-05 06:28 | 52.48331 | 169.25430 | 34958 ft | 573 kts | 45° |
| 2026-05-05 06:28 | 52.53454 | 169.35413 | 34963 ft | 571 kts | 45° |
| 2026-05-05 06:29 | 52.58548 | 169.45377 | 34970 ft | 569 kts | 45° |
| 2026-05-05 06:29 | 52.63622 | 169.55340 | 34976 ft | 567 kts | 46° |
| 2026-05-05 06:30 | 52.68675 | 169.65303 | 34981 ft | 565 kts | 46° |
| 2026-05-05 06:30 | 52.73689 | 169.75228 | 34988 ft | 563 kts | 46° |
| 2026-05-05 06:31 | 52.78696 | 169.85177 | 34995 ft | 561 kts | 46° |
| 2026-05-05 06:31 | 52.83665 | 169.95092 | 34999 ft | 560 kts | 46° |
| 2026-05-05 06:32 | 52.88590 | 170.04955 | 35008 ft | 559 kts | 46° |
| 2026-05-05 06:32 | 52.93571 | 170.14972 | 35014 ft | 559 kts | 46° |
| 2026-05-05 06:33 | 52.98568 | 170.24811 | 35019 ft | 557 kts | 44° |
| 2026-05-05 06:33 | 53.03644 | 170.34488 | 35024 ft | 556 kts | 44° |
| 2026-05-05 06:34 | 53.08713 | 170.44211 | 35028 ft | 555 kts | 45° |
| 2026-05-05 06:34 | 53.13693 | 170.53871 | 35035 ft | 554 kts | 45° |
| 2026-05-05 06:35 | 53.18697 | 170.63641 | 35038 ft | 554 kts | 45° |
| 2026-05-05 06:35 | 53.23693 | 170.73433 | 35041 ft | 553 kts | 45° |
| 2026-05-05 06:36 | 53.28664 | 170.83212 | 35049 ft | 553 kts | 45° |
| 2026-05-05 06:36 | 53.33639 | 170.93036 | 35054 ft | 553 kts | 45° |
| 2026-05-05 06:37 | 53.38592 | 171.02856 | 35059 ft | 552 kts | 45° |
| 2026-05-05 06:37 | 53.43541 | 171.12708 | 35068 ft | 552 kts | 45° |
| 2026-05-05 06:38 | 53.48476 | 171.22570 | 35074 ft | 551 kts | 45° |
| 2026-05-05 06:38 | 53.53395 | 171.32439 | 35072 ft | 551 kts | 45° |
| 2026-05-05 06:39 | 53.58312 | 171.42343 | 35078 ft | 551 kts | 45° |
| 2026-05-05 06:39 | 53.63209 | 171.52250 | 35085 ft | 550 kts | 45° |
| 2026-05-05 06:40 | 53.68093 | 171.62167 | 35089 ft | 549 kts | 45° |
| 2026-05-05 06:40 | 53.72931 | 171.72031 | 35094 ft | 548 kts | 45° |
| 2026-05-05 06:41 | 53.77785 | 171.81964 | 35098 ft | 548 kts | 45° |
| 2026-05-05 06:41 | 53.82634 | 171.91928 | 35102 ft | 547 kts | 45° |
| 2026-05-05 06:42 | 53.87458 | 172.01881 | 35104 ft | 547 kts | 45° |
| 2026-05-05 06:42 | 53.92276 | 172.11863 | 35112 ft | 546 kts | 45° |
| 2026-05-05 06:43 | 53.97065 | 172.21824 | 35118 ft | 545 kts | 45° |
| 2026-05-05 06:43 | 54.01848 | 172.31811 | 35122 ft | 544 kts | 45° |
| 2026-05-05 06:44 | 54.06619 | 172.41815 | 35126 ft | 543 kts | 45° |
| 2026-05-05 06:44 | 54.11363 | 172.51803 | 35137 ft | 543 kts | 45° |
| 2026-05-05 06:45 | 54.16097 | 172.61810 | 35132 ft | 542 kts | 45° |
| 2026-05-05 06:45 | 54.20823 | 172.71842 | 35138 ft | 541 kts | 45° |
| 2026-05-05 06:46 | 54.25518 | 172.81847 | 35144 ft | 540 kts | 45° |
| 2026-05-05 06:46 | 54.30125 | 172.92040 | 35145 ft | 541 kts | 47° |
| 2026-05-05 06:47 | 54.34596 | 173.02389 | 35152 ft | 541 kts | 47° |
| 2026-05-05 06:47 | 54.39067 | 173.12752 | 35154 ft | 540 kts | 47° |
| 2026-05-05 06:48 | 54.43546 | 173.23090 | 35161 ft | 539 kts | 47° |
| 2026-05-05 06:48 | 54.48010 | 173.33408 | 35160 ft | 538 kts | 47° |
| 2026-05-05 06:49 | 54.52465 | 173.43746 | 35164 ft | 537 kts | 47° |
| 2026-05-05 06:49 | 54.56904 | 173.54092 | 35173 ft | 537 kts | 47° |
| 2026-05-05 06:50 | 54.61302 | 173.64390 | 35174 ft | 536 kts | 47° |
| 2026-05-05 06:50 | 54.65711 | 173.74757 | 35175 ft | 535 kts | 47° |
| 2026-05-05 06:51 | 54.70098 | 173.85114 | 35178 ft | 534 kts | 47° |
| 2026-05-05 06:51 | 54.73774 | 173.93828 | 35182 ft | 534 kts | 47° |
| 2026-05-05 06:52 | 54.78137 | 174.04207 | 35184 ft | 532 kts | 47° |
| 2026-05-05 06:52 | 54.82483 | 174.14590 | 35187 ft | 531 kts | 47° |
| 2026-05-05 06:53 | 54.86801 | 174.24949 | 35194 ft | 531 kts | 47° |
| 2026-05-05 06:53 | 54.91116 | 174.35345 | 35195 ft | 530 kts | 47° |
| 2026-05-05 06:54 | 54.95418 | 174.45752 | 35198 ft | 529 kts | 47° |
| 2026-05-05 06:54 | 54.99696 | 174.56145 | 35203 ft | 528 kts | 47° |
| 2026-05-05 06:55 | 55.03967 | 174.66565 | 35209 ft | 528 kts | 47° |
| 2026-05-05 06:55 | 55.08198 | 174.76930 | 35214 ft | 527 kts | 47° |
| 2026-05-05 06:56 | 55.12439 | 174.87363 | 35218 ft | 527 kts | 47° |
| 2026-05-05 06:56 | 55.16665 | 174.97805 | 35223 ft | 526 kts | 47° |
| 2026-05-05 06:57 | 55.20881 | 175.08266 | 35227 ft | 525 kts | 47° |
| 2026-05-05 06:57 | 55.25074 | 175.18713 | 35219 ft | 524 kts | 47° |
| 2026-05-05 06:58 | 55.29258 | 175.29184 | 35227 ft | 523 kts | 48° |
| 2026-05-05 06:58 | 55.33422 | 175.39647 | 35232 ft | 522 kts | 48° |
| 2026-05-05 06:59 | 55.37567 | 175.50107 | 35234 ft | 521 kts | 48° |
| 2026-05-05 06:59 | 55.41691 | 175.60558 | 35240 ft | 519 kts | 49° |
| 2026-05-05 07:00 | 55.45796 | 175.71006 | 35241 ft | 518 kts | 49° |
| 2026-05-05 07:00 | 55.49878 | 175.81440 | 35240 ft | 517 kts | 49° |
| 2026-05-05 07:01 | 55.53959 | 175.91913 | 35248 ft | 516 kts | 49° |
| 2026-05-05 07:01 | 55.58012 | 176.02362 | 35245 ft | 516 kts | 49° |
| 2026-05-05 07:02 | 55.62057 | 176.12833 | 35248 ft | 515 kts | 50° |
| 2026-05-05 07:02 | 55.66085 | 176.23305 | 35253 ft | 514 kts | 50° |
| 2026-05-05 07:03 | 55.70095 | 176.33778 | 35247 ft | 514 kts | 50° |
| 2026-05-05 07:03 | 55.74101 | 176.44280 | 35250 ft | 513 kts | 50° |
| 2026-05-05 07:04 | 55.78083 | 176.54767 | 35257 ft | 513 kts | 51° |
| 2026-05-05 07:04 | 55.82065 | 176.65299 | 35255 ft | 512 kts | 51° |
| 2026-05-05 07:05 | 55.86026 | 176.75823 | 35267 ft | 511 kts | 51° |
| 2026-05-05 07:05 | 55.89971 | 176.86347 | 35264 ft | 511 kts | 51° |
| 2026-05-05 07:06 | 55.93900 | 176.96873 | 35264 ft | 510 kts | 51° |
| 2026-05-05 07:06 | 55.97817 | 177.07416 | 35269 ft | 508 kts | 52° |
| 2026-05-05 07:07 | 56.01710 | 177.17937 | 35272 ft | 507 kts | 52° |
| 2026-05-05 07:07 | 56.05584 | 177.28455 | 35269 ft | 506 kts | 52° |
| 2026-05-05 07:08 | 56.09423 | 177.38920 | 35273 ft | 504 kts | 52° |
| 2026-05-05 07:08 | 56.13275 | 177.49464 | 35276 ft | 503 kts | 52° |
| 2026-05-05 07:09 | 56.17066 | 177.59886 | 35279 ft | 502 kts | 52° |
| 2026-05-05 07:09 | 56.20868 | 177.70382 | 35281 ft | 501 kts | 52° |
| 2026-05-05 07:10 | 56.24646 | 177.80862 | 35279 ft | 500 kts | 52° |
| 2026-05-05 07:10 | 56.28418 | 177.91368 | 35284 ft | 499 kts | 53° |
| 2026-05-05 07:11 | 56.32168 | 178.01859 | 35284 ft | 498 kts | 53° |
| 2026-05-05 07:11 | 56.35901 | 178.12348 | 35283 ft | 497 kts | 53° |
| 2026-05-05 07:12 | 56.39624 | 178.22852 | 35285 ft | 496 kts | 53° |
| 2026-05-05 07:12 | 56.43331 | 178.33356 | 35287 ft | 496 kts | 53° |
| 2026-05-05 07:13 | 56.47028 | 178.43879 | 35288 ft | 495 kts | 53° |
| 2026-05-05 07:13 | 56.50706 | 178.54394 | 35288 ft | 494 kts | 54° |
| 2026-05-05 07:14 | 56.54370 | 178.64917 | 35290 ft | 494 kts | 54° |
| 2026-05-05 07:14 | 56.58027 | 178.75463 | 35293 ft | 493 kts | 54° |
| 2026-05-05 07:15 | 56.61666 | 178.86005 | 35290 ft | 493 kts | 54° |
| 2026-05-05 07:15 | 56.65288 | 178.96541 | 35290 ft | 492 kts | 54° |
| 2026-05-05 07:16 | 56.68902 | 179.07104 | 35291 ft | 491 kts | 54° |
| 2026-05-05 07:16 | 56.72500 | 179.17663 | 35293 ft | 491 kts | 54° |
| 2026-05-05 07:17 | 56.76088 | 179.28240 | 35295 ft | 490 kts | 55° |
| 2026-05-05 07:17 | 56.79641 | 179.38762 | 35297 ft | 489 kts | 55° |
| 2026-05-05 07:18 | 56.83218 | 179.49399 | 35293 ft | 489 kts | 55° |
| 2026-05-05 07:18 | 56.86761 | 179.59982 | 35295 ft | 488 kts | 55° |
| 2026-05-05 07:19 | 56.90295 | 179.70588 | 35299 ft | 487 kts | 55° |
| 2026-05-05 07:19 | 56.93809 | 179.81176 | 35301 ft | 487 kts | 55° |
| 2026-05-05 07:20 | 56.97318 | 179.91799 | 35294 ft | 486 kts | 55° |
| 2026-05-05 07:20 | 57.00807 | -179.97570 | 35296 ft | 486 kts | 56° |
| 2026-05-05 07:21 | 57.03874 | -179.86492 | 35290 ft | 488 kts | 62° |
| 2026-05-05 07:21 | 57.06711 | -179.75136 | 35297 ft | 488 kts | 62° |
| 2026-05-05 07:22 | 57.09592 | -179.63852 | 35298 ft | 487 kts | 61° |
| 2026-05-05 07:22 | 57.12500 | -179.52705 | 35301 ft | 486 kts | 60° |
| 2026-05-05 07:23 | 57.15429 | -179.41499 | 35295 ft | 485 kts | 60° |
| 2026-05-05 07:23 | 57.18339 | -179.30302 | 35296 ft | 485 kts | 60° |
| 2026-05-05 07:24 | 57.21237 | -179.19084 | 35294 ft | 484 kts | 60° |
| 2026-05-05 07:24 | 57.24122 | -179.07856 | 35296 ft | 483 kts | 60° |
| 2026-05-05 07:25 | 57.26990 | -178.96631 | 35292 ft | 483 kts | 60° |
| 2026-05-05 07:25 | 57.29845 | -178.85408 | 35294 ft | 482 kts | 60° |
| 2026-05-05 07:26 | 57.32679 | -178.74207 | 35293 ft | 482 kts | 60° |
| 2026-05-05 07:26 | 57.35513 | -178.62953 | 35292 ft | 481 kts | 60° |
| 2026-05-05 07:27 | 57.38335 | -178.51688 | 35294 ft | 481 kts | 61° |
| 2026-05-05 07:27 | 57.41135 | -178.40453 | 35293 ft | 481 kts | 61° |
| 2026-05-05 07:28 | 57.43931 | -178.29174 | 35296 ft | 480 kts | 61° |
| 2026-05-05 07:28 | 57.46707 | -178.17919 | 35294 ft | 480 kts | 61° |
| 2026-05-05 07:29 | 57.49474 | -178.06645 | 35302 ft | 479 kts | 61° |
| 2026-05-05 07:29 | 57.52231 | -177.95352 | 35289 ft | 479 kts | 61° |
| 2026-05-05 07:30 | 57.54973 | -177.84066 | 35289 ft | 479 kts | 61° |
| 2026-05-05 07:30 | 57.59066 | -177.67104 | 35289 ft | 478 kts | 61° |
| 2026-05-05 07:31 | 57.61777 | -177.55797 | 35288 ft | 478 kts | 61° |
| 2026-05-05 07:31 | 57.64477 | -177.44476 | 35285 ft | 477 kts | 61° |
| 2026-05-05 07:32 | 57.67167 | -177.33138 | 35286 ft | 477 kts | 61° |
| 2026-05-05 07:32 | 57.69826 | -177.21873 | 35288 ft | 477 kts | 61° |
| 2026-05-05 07:33 | 57.72507 | -177.10451 | 35287 ft | 476 kts | 61° |
| 2026-05-05 07:33 | 57.75140 | -176.99179 | 35286 ft | 476 kts | 62° |
| 2026-05-05 07:34 | 57.77787 | -176.87784 | 35280 ft | 476 kts | 62° |
| 2026-05-05 07:34 | 57.80415 | -176.76411 | 35281 ft | 476 kts | 62° |
| 2026-05-05 07:35 | 57.83041 | -176.64985 | 35279 ft | 476 kts | 62° |
| 2026-05-05 07:35 | 57.85650 | -176.53575 | 35280 ft | 476 kts | 62° |
| 2026-05-05 07:36 | 57.88249 | -176.42145 | 35278 ft | 476 kts | 62° |
| 2026-05-05 07:36 | 57.90424 | -176.32531 | 35279 ft | 476 kts | 62° |
| 2026-05-05 07:37 | 57.92988 | -176.21145 | 35276 ft | 476 kts | 62° |
| 2026-05-05 07:37 | 57.95561 | -176.09654 | 35273 ft | 476 kts | 62° |
| 2026-05-05 07:38 | 57.98121 | -175.98155 | 35273 ft | 476 kts | 63° |
| 2026-05-05 07:38 | 58.00672 | -175.86634 | 35270 ft | 476 kts | 63° |
| 2026-05-05 07:39 | 58.03217 | -175.75083 | 35270 ft | 476 kts | 63° |
| 2026-05-05 07:39 | 58.05752 | -175.63514 | 35269 ft | 477 kts | 63° |
| 2026-05-05 07:40 | 58.08270 | -175.51956 | 35267 ft | 477 kts | 63° |
| 2026-05-05 07:40 | 58.10785 | -175.40343 | 35266 ft | 477 kts | 63° |
| 2026-05-05 07:41 | 58.13287 | -175.28728 | 35263 ft | 477 kts | 63° |
| 2026-05-05 07:41 | 58.15776 | -175.17105 | 35260 ft | 477 kts | 63° |
| 2026-05-05 07:42 | 58.18266 | -175.05413 | 35263 ft | 478 kts | 64° |
| 2026-05-05 07:42 | 58.20737 | -174.93743 | 35256 ft | 478 kts | 64° |
| 2026-05-05 07:43 | 58.23203 | -174.82031 | 35255 ft | 478 kts | 64° |
| 2026-05-05 07:43 | 58.25660 | -174.70294 | 35255 ft | 478 kts | 64° |
| 2026-05-05 07:44 | 58.28106 | -174.58544 | 35243 ft | 479 kts | 64° |
| 2026-05-05 07:44 | 58.30543 | -174.46768 | 35253 ft | 479 kts | 64° |
| 2026-05-05 07:45 | 58.32975 | -174.34944 | 35251 ft | 479 kts | 64° |
| 2026-05-05 07:45 | 58.35360 | -174.23286 | 35243 ft | 480 kts | 64° |
| 2026-05-05 07:46 | 58.37769 | -174.11436 | 35246 ft | 480 kts | 65° |
| 2026-05-05 07:46 | 58.40173 | -173.99544 | 35247 ft | 480 kts | 65° |
| 2026-05-05 07:47 | 58.42545 | -173.87740 | 35242 ft | 481 kts | 65° |
| 2026-05-05 07:47 | 58.44945 | -173.75728 | 35246 ft | 481 kts | 65° |
| 2026-05-05 07:48 | 58.47305 | -173.63842 | 35242 ft | 482 kts | 65° |
| 2026-05-05 07:48 | 58.49667 | -173.51871 | 35236 ft | 482 kts | 65° |
| 2026-05-05 07:49 | 58.52025 | -173.39849 | 35236 ft | 482 kts | 65° |
| 2026-05-05 07:49 | 58.54373 | -173.27807 | 35231 ft | 483 kts | 65° |
| 2026-05-05 07:50 | 58.56708 | -173.15759 | 35232 ft | 484 kts | 65° |
| 2026-05-05 07:50 | 58.59039 | -173.03653 | 35227 ft | 484 kts | 66° |
| 2026-05-05 07:51 | 58.61358 | -172.91538 | 35226 ft | 484 kts | 66° |
| 2026-05-05 07:51 | 58.63670 | -172.79378 | 35221 ft | 485 kts | 66° |
| 2026-05-05 07:52 | 58.65963 | -172.67246 | 35219 ft | 485 kts | 66° |
| 2026-05-05 07:52 | 58.68262 | -172.55003 | 35216 ft | 486 kts | 66° |
| 2026-05-05 07:53 | 58.70538 | -172.42805 | 35210 ft | 486 kts | 66° |
| 2026-05-05 07:53 | 58.72813 | -172.30538 | 35210 ft | 486 kts | 66° |
| 2026-05-05 07:54 | 58.75061 | -172.18331 | 35193 ft | 487 kts | 66° |
| 2026-05-05 07:54 | 58.77328 | -172.05949 | 35207 ft | 487 kts | 66° |
| 2026-05-05 07:55 | 58.79571 | -171.93614 | 35193 ft | 488 kts | 67° |
| 2026-05-05 07:55 | 58.81787 | -171.81347 | 35192 ft | 488 kts | 67° |
| 2026-05-05 07:56 | 58.84009 | -171.68964 | 35190 ft | 488 kts | 67° |
| 2026-05-05 07:56 | 58.86222 | -171.56556 | 35186 ft | 489 kts | 67° |
| 2026-05-05 07:57 | 58.88421 | -171.44137 | 35184 ft | 489 kts | 67° |
| 2026-05-05 07:57 | 58.90615 | -171.31667 | 35180 ft | 490 kts | 67° |
| 2026-05-05 07:58 | 58.92810 | -171.19099 | 35175 ft | 490 kts | 68° |
| 2026-05-05 07:58 | 58.94969 | -171.06661 | 35176 ft | 490 kts | 68° |
| 2026-05-05 07:59 | 58.97142 | -170.94055 | 35174 ft | 491 kts | 68° |
| 2026-05-05 07:59 | 58.99269 | -170.81627 | 35165 ft | 491 kts | 68° |
| 2026-05-05 08:00 | 59.01418 | -170.68983 | 35166 ft | 491 kts | 68° |
| 2026-05-05 08:00 | 59.03545 | -170.56387 | 35160 ft | 492 kts | 68° |
| 2026-05-05 08:01 | 59.05655 | -170.43803 | 35159 ft | 492 kts | 68° |
| 2026-05-05 08:01 | 59.07767 | -170.31115 | 35154 ft | 492 kts | 68° |
| 2026-05-05 08:02 | 59.09861 | -170.18443 | 35151 ft | 492 kts | 68° |
| 2026-05-05 08:02 | 59.11947 | -170.05730 | 35148 ft | 493 kts | 69° |
| 2026-05-05 08:03 | 59.14020 | -169.93011 | 35146 ft | 493 kts | 69° |
| 2026-05-05 08:03 | 59.16083 | -169.80255 | 35142 ft | 494 kts | 69° |
| 2026-05-05 08:04 | 59.18132 | -169.67497 | 35138 ft | 494 kts | 69° |
| 2026-05-05 08:04 | 59.20172 | -169.54699 | 35129 ft | 494 kts | 69° |
| 2026-05-05 08:05 | 59.22202 | -169.41870 | 35131 ft | 495 kts | 69° |
| 2026-05-05 08:06 | 59.26067 | -169.17176 | 35121 ft | 496 kts | 69° |
| 2026-05-05 08:06 | 59.28066 | -169.04267 | 35117 ft | 496 kts | 69° |
| 2026-05-05 08:07 | 59.30039 | -168.91423 | 35112 ft | 496 kts | 70° |
| 2026-05-05 08:07 | 59.32024 | -168.78405 | 35111 ft | 497 kts | 70° |
| 2026-05-05 08:08 | 59.33978 | -168.65492 | 35108 ft | 497 kts | 70° |
| 2026-05-05 08:08 | 59.35930 | -168.52492 | 35099 ft | 498 kts | 70° |
| 2026-05-05 08:09 | 59.37873 | -168.39449 | 35105 ft | 498 kts | 70° |
| 2026-05-05 08:09 | 59.39803 | -168.26393 | 35095 ft | 499 kts | 70° |
| 2026-05-05 08:10 | 59.41724 | -168.13296 | 35081 ft | 499 kts | 70° |
| 2026-05-05 08:10 | 59.43630 | -168.00191 | 35077 ft | 499 kts | 71° |
| 2026-05-05 08:11 | 59.45523 | -167.87077 | 35090 ft | 500 kts | 71° |
| 2026-05-05 08:11 | 59.47407 | -167.73915 | 35077 ft | 500 kts | 71° |
| 2026-05-05 08:12 | 59.49272 | -167.60781 | 35098 ft | 500 kts | 71° |
| 2026-05-05 08:12 | 59.50209 | -167.54142 | 35298 ft | 498 kts | 71° |
| 2026-05-05 08:12 | 59.51131 | -167.47596 | 35555 ft | 496 kts | 71° |
| 2026-05-05 08:13 | 59.52163 | -167.41130 | 35756 ft | 494 kts | 68° |
| 2026-05-05 08:13 | 59.53326 | -167.34785 | 35884 ft | 493 kts | 66° |
| 2026-05-05 08:13 | 59.54544 | -167.28453 | 36014 ft | 493 kts | 66° |
| 2026-05-05 08:13 | 59.55761 | -167.22128 | 36150 ft | 494 kts | 66° |
| 2026-05-05 08:14 | 59.56956 | -167.15803 | 36280 ft | 494 kts | 67° |
| 2026-05-05 08:14 | 59.58141 | -167.09386 | 36403 ft | 495 kts | 67° |
| 2026-05-05 08:14 | 59.59301 | -167.02992 | 36532 ft | 495 kts | 68° |
| 2026-05-05 08:14 | 59.60451 | -166.96569 | 36632 ft | 496 kts | 68° |
| 2026-05-05 08:15 | 59.61591 | -166.90155 | 36741 ft | 497 kts | 68° |
| 2026-05-05 08:15 | 59.62733 | -166.83698 | 36850 ft | 497 kts | 68° |
| 2026-05-05 08:15 | 59.63871 | -166.77246 | 36953 ft | 498 kts | 68° |
| 2026-05-05 08:15 | 59.65008 | -166.70783 | 37024 ft | 499 kts | 68° |
| 2026-05-05 08:16 | 59.67288 | -166.57771 | 37035 ft | 504 kts | 68° |
| 2026-05-05 08:16 | 59.69575 | -166.44629 | 37019 ft | 506 kts | 68° |
| 2026-05-05 08:17 | 59.71855 | -166.31434 | 37021 ft | 506 kts | 69° |
| 2026-05-05 08:17 | 59.74118 | -166.18240 | 37016 ft | 506 kts | 69° |
| 2026-05-05 08:18 | 59.76372 | -166.05012 | 37011 ft | 507 kts | 69° |
| 2026-05-05 08:18 | 59.78622 | -165.91712 | 37008 ft | 508 kts | 69° |
| 2026-05-05 08:19 | 59.80854 | -165.78391 | 37006 ft | 508 kts | 69° |
| 2026-05-05 08:19 | 59.83083 | -165.65028 | 36997 ft | 509 kts | 69° |
| 2026-05-05 08:20 | 59.85293 | -165.51660 | 36991 ft | 510 kts | 69° |
| 2026-05-05 08:20 | 59.87493 | -165.38259 | 36984 ft | 511 kts | 69° |
| 2026-05-05 08:21 | 59.89691 | -165.24773 | 36980 ft | 511 kts | 70° |
| 2026-05-05 08:21 | 59.91873 | -165.11297 | 36977 ft | 511 kts | 70° |
| 2026-05-05 08:22 | 59.94037 | -164.97795 | 36969 ft | 512 kts | 70° |
| 2026-05-05 08:22 | 59.96192 | -164.84252 | 36968 ft | 511 kts | 70° |
| 2026-05-05 08:23 | 59.98331 | -164.70713 | 36968 ft | 512 kts | 70° |
| 2026-05-05 08:23 | 60.00445 | -164.57234 | 36961 ft | 512 kts | 71° |
| 2026-05-05 08:24 | 60.02570 | -164.43563 | 36954 ft | 512 kts | 71° |
| 2026-05-05 08:24 | 60.04654 | -164.30047 | 36951 ft | 512 kts | 71° |
| 2026-05-05 08:25 | 60.06743 | -164.16405 | 36948 ft | 512 kts | 71° |
| 2026-05-05 08:25 | 60.08814 | -164.02772 | 36947 ft | 512 kts | 71° |
| 2026-05-05 08:26 | 60.10873 | -163.89093 | 36944 ft | 513 kts | 71° |
| 2026-05-05 08:26 | 60.12921 | -163.75387 | 36940 ft | 513 kts | 72° |
| 2026-05-05 08:27 | 60.14951 | -163.61695 | 36934 ft | 513 kts | 72° |
| 2026-05-05 08:27 | 60.16973 | -163.47938 | 36925 ft | 513 kts | 72° |
| 2026-05-05 08:28 | 60.18978 | -163.34176 | 36917 ft | 513 kts | 72° |
| 2026-05-05 08:28 | 60.20966 | -163.20420 | 36909 ft | 513 kts | 72° |
| 2026-05-05 08:29 | 60.22946 | -163.06619 | 36900 ft | 513 kts | 72° |
| 2026-05-05 08:30 | 60.25882 | -162.85937 | 36894 ft | 513 kts | 73° |
| 2026-05-05 08:30 | 60.27824 | -162.72089 | 36884 ft | 512 kts | 73° |
| 2026-05-05 08:31 | 60.29755 | -162.58287 | 36879 ft | 512 kts | 73° |
| 2026-05-05 08:31 | 60.31745 | -162.44495 | 36868 ft | 512 kts | 72° |
| 2026-05-05 08:32 | 60.33735 | -162.30683 | 36864 ft | 512 kts | 73° |
| 2026-05-05 08:32 | 60.35699 | -162.16851 | 36853 ft | 512 kts | 73° |
| 2026-05-05 08:33 | 60.37636 | -162.03053 | 36846 ft | 512 kts | 73° |
| 2026-05-05 08:33 | 60.39562 | -161.89206 | 36838 ft | 512 kts | 73° |
| 2026-05-05 08:34 | 60.41474 | -161.75345 | 36826 ft | 511 kts | 73° |
| 2026-05-05 08:34 | 60.43370 | -161.61479 | 36817 ft | 511 kts | 74° |
| 2026-05-05 08:35 | 60.45254 | -161.47585 | 36812 ft | 511 kts | 74° |
| 2026-05-05 08:35 | 60.47102 | -161.33837 | 36807 ft | 511 kts | 74° |
| 2026-05-05 08:36 | 60.48958 | -161.19901 | 36805 ft | 510 kts | 74° |
| 2026-05-05 08:36 | 60.50793 | -161.05992 | 36803 ft | 510 kts | 74° |
| 2026-05-05 08:37 | 60.52614 | -160.92071 | 36802 ft | 510 kts | 75° |
| 2026-05-05 08:37 | 60.54421 | -160.78130 | 36800 ft | 510 kts | 75° |
| 2026-05-05 08:38 | 60.56210 | -160.64205 | 36794 ft | 510 kts | 75° |
| 2026-05-05 08:38 | 60.57985 | -160.50252 | 36797 ft | 509 kts | 75° |
| 2026-05-05 08:39 | 60.59739 | -160.36333 | 36794 ft | 508 kts | 75° |
| 2026-05-05 08:39 | 60.61477 | -160.22416 | 36788 ft | 507 kts | 76° |
| 2026-05-05 08:40 | 60.63205 | -160.08451 | 36782 ft | 507 kts | 76° |
| 2026-05-05 08:40 | 60.64906 | -159.94574 | 36777 ft | 506 kts | 76° |
| 2026-05-05 08:41 | 60.66599 | -159.80623 | 36774 ft | 506 kts | 76° |
| 2026-05-05 08:41 | 60.68274 | -159.66691 | 36765 ft | 505 kts | 76° |
| 2026-05-05 08:42 | 60.69932 | -159.52763 | 36764 ft | 505 kts | 77° |
| 2026-05-05 08:42 | 60.71577 | -159.38807 | 36761 ft | 505 kts | 77° |
| 2026-05-05 08:43 | 60.73205 | -159.24864 | 36760 ft | 505 kts | 77° |
| 2026-05-05 08:43 | 60.74815 | -159.10930 | 36753 ft | 505 kts | 77° |
| 2026-05-05 08:44 | 60.76417 | -158.96929 | 36751 ft | 505 kts | 77° |
| 2026-05-05 08:44 | 60.78003 | -158.82925 | 36752 ft | 505 kts | 78° |
| 2026-05-05 08:45 | 60.79562 | -158.69018 | 36748 ft | 505 kts | 78° |
| 2026-05-05 08:45 | 60.81117 | -158.55011 | 36744 ft | 504 kts | 78° |
| 2026-05-05 08:46 | 60.82654 | -158.41012 | 36742 ft | 504 kts | 78° |
| 2026-05-05 08:46 | 60.84179 | -158.26983 | 36738 ft | 503 kts | 78° |
| 2026-05-05 08:47 | 60.85686 | -158.12965 | 36734 ft | 503 kts | 78° |
| 2026-05-05 08:47 | 60.87178 | -157.98944 | 36728 ft | 503 kts | 78° |
| 2026-05-05 08:48 | 60.88416 | -157.87189 | 36729 ft | 503 kts | 78° |
| 2026-05-05 08:48 | 60.90118 | -157.70864 | 36723 ft | 503 kts | 79° |
| 2026-05-05 08:49 | 60.91322 | -157.59179 | 36720 ft | 503 kts | 79° |
| 2026-05-05 08:49 | 60.92759 | -157.45093 | 36717 ft | 503 kts | 79° |
| 2026-05-05 08:50 | 60.94181 | -157.30998 | 36715 ft | 503 kts | 79° |
| 2026-05-05 08:50 | 60.95587 | -157.16904 | 36711 ft | 503 kts | 79° |
| 2026-05-05 08:51 | 60.96978 | -157.02811 | 36709 ft | 503 kts | 79° |
| 2026-05-05 08:51 | 60.98357 | -156.88668 | 36704 ft | 503 kts | 80° |
| 2026-05-05 08:52 | 60.99718 | -156.74544 | 36698 ft | 503 kts | 80° |
| 2026-05-05 08:52 | 61.01067 | -156.60387 | 36692 ft | 503 kts | 80° |
| 2026-05-05 08:53 | 61.02400 | -156.46223 | 36690 ft | 503 kts | 80° |
| 2026-05-05 08:53 | 61.03719 | -156.32040 | 36686 ft | 503 kts | 81° |
| 2026-05-05 08:54 | 61.05022 | -156.17852 | 36672 ft | 503 kts | 81° |
| 2026-05-05 08:54 | 61.06311 | -156.03652 | 36659 ft | 503 kts | 81° |
| 2026-05-05 08:55 | 61.07587 | -155.89420 | 36648 ft | 503 kts | 81° |
| 2026-05-05 08:55 | 61.08838 | -155.75286 | 36635 ft | 503 kts | 81° |
| 2026-05-05 08:56 | 61.10092 | -155.60960 | 36638 ft | 503 kts | 81° |
| 2026-05-05 08:56 | 61.11502 | -155.46888 | 36635 ft | 504 kts | 79° |
| 2026-05-05 08:57 | 61.13034 | -155.32728 | 36643 ft | 504 kts | 79° |
| 2026-05-05 08:57 | 61.14522 | -155.18565 | 36652 ft | 504 kts | 79° |
| 2026-05-05 08:58 | 61.15964 | -155.04388 | 36661 ft | 503 kts | 80° |
| 2026-05-05 08:58 | 61.17385 | -154.90170 | 36672 ft | 503 kts | 80° |
| 2026-05-05 08:59 | 61.18786 | -154.75990 | 36675 ft | 503 kts | 80° |
| 2026-05-05 08:59 | 61.20175 | -154.61783 | 36671 ft | 503 kts | 81° |
| 2026-05-05 09:00 | 61.21550 | -154.47563 | 36673 ft | 502 kts | 81° |
| 2026-05-05 09:00 | 61.22909 | -154.33344 | 36674 ft | 502 kts | 81° |
| 2026-05-05 09:01 | 61.24253 | -154.19105 | 36668 ft | 502 kts | 81° |
| 2026-05-05 09:01 | 61.25583 | -154.04841 | 36671 ft | 502 kts | 81° |
| 2026-05-05 09:02 | 61.26897 | -153.90582 | 36676 ft | 503 kts | 81° |
| 2026-05-05 09:02 | 61.28200 | -153.76286 | 36681 ft | 503 kts | 82° |
| 2026-05-05 09:03 | 61.29484 | -153.62001 | 36690 ft | 504 kts | 82° |
| 2026-05-05 09:03 | 61.30760 | -153.47637 | 36694 ft | 504 kts | 82° |
| 2026-05-05 09:04 | 61.32017 | -153.33298 | 36703 ft | 504 kts | 82° |
| 2026-05-05 09:04 | 61.33260 | -153.18943 | 36712 ft | 504 kts | 82° |
| 2026-05-05 09:05 | 61.34489 | -153.04554 | 36714 ft | 504 kts | 82° |
| 2026-05-05 09:05 | 61.35691 | -152.90295 | 36712 ft | 504 kts | 83° |
| 2026-05-05 09:06 | 61.36887 | -152.75917 | 36715 ft | 503 kts | 83° |
| 2026-05-05 09:06 | 61.38069 | -152.61513 | 36722 ft | 503 kts | 83° |
| 2026-05-05 09:07 | 61.39233 | -152.47143 | 36734 ft | 503 kts | 83° |
| 2026-05-05 09:07 | 61.40383 | -152.32739 | 36746 ft | 503 kts | 83° |
| 2026-05-05 09:08 | 61.41517 | -152.18319 | 36746 ft | 503 kts | 83° |
| 2026-05-05 09:08 | 61.42637 | -152.03886 | 36747 ft | 504 kts | 84° |
| 2026-05-05 09:09 | 61.43741 | -151.89459 | 36747 ft | 504 kts | 84° |
| 2026-05-05 09:09 | 61.44833 | -151.74978 | 36743 ft | 504 kts | 84° |
| 2026-05-05 09:10 | 61.45908 | -151.60509 | 36740 ft | 504 kts | 84° |
| 2026-05-05 09:10 | 61.46969 | -151.46009 | 36738 ft | 504 kts | 84° |
| 2026-05-05 09:11 | 61.48013 | -151.31519 | 36732 ft | 504 kts | 84° |
| 2026-05-05 09:11 | 61.49040 | -151.17035 | 36735 ft | 503 kts | 85° |
| 2026-05-05 09:12 | 61.50053 | -151.02531 | 36730 ft | 503 kts | 85° |
| 2026-05-05 09:12 | 61.51043 | -150.88127 | 36728 ft | 503 kts | 85° |
| 2026-05-05 09:13 | 61.52028 | -150.73552 | 36729 ft | 502 kts | 85° |
| 2026-05-05 09:13 | 61.52993 | -150.59037 | 36722 ft | 502 kts | 86° |
| 2026-05-05 09:14 | 61.53941 | -150.44563 | 36723 ft | 501 kts | 86° |
| 2026-05-05 09:14 | 61.54871 | -150.30100 | 36726 ft | 501 kts | 86° |
| 2026-05-05 09:15 | 61.55783 | -150.15696 | 36718 ft | 501 kts | 86° |
| 2026-05-05 09:15 | 61.56693 | -150.01211 | 36711 ft | 501 kts | 85° |
| 2026-05-05 09:16 | 61.58391 | -149.86936 | 36711 ft | 506 kts | 77° |
| 2026-05-05 09:16 | 61.60443 | -149.72789 | 36718 ft | 507 kts | 77° |
| 2026-05-05 09:17 | 61.62526 | -149.58677 | 36717 ft | 506 kts | 77° |
| 2026-05-05 09:17 | 61.64464 | -149.45388 | 36718 ft | 506 kts | 77° |
| 2026-05-05 09:18 | 61.66500 | -149.31209 | 36683 ft | 506 kts | 77° |
| 2026-05-05 09:18 | 61.68517 | -149.17016 | 36686 ft | 506 kts | 78° |
| 2026-05-05 09:19 | 61.70521 | -149.02784 | 36684 ft | 506 kts | 78° |
| 2026-05-05 09:19 | 61.72510 | -148.88548 | 36692 ft | 506 kts | 78° |
| 2026-05-05 09:20 | 61.74483 | -148.74307 | 36697 ft | 505 kts | 78° |
| 2026-05-05 09:20 | 61.76437 | -148.60076 | 36707 ft | 505 kts | 79° |
| 2026-05-05 09:21 | 61.78379 | -148.45799 | 36713 ft | 506 kts | 79° |
| 2026-05-05 09:21 | 61.80304 | -148.31520 | 36713 ft | 506 kts | 79° |
| 2026-05-05 09:22 | 61.82222 | -148.17170 | 36722 ft | 507 kts | 79° |
| 2026-05-05 09:22 | 61.84124 | -148.02800 | 36731 ft | 507 kts | 79° |
| 2026-05-05 09:23 | 61.86012 | -147.88425 | 36738 ft | 506 kts | 80° |
| 2026-05-05 09:23 | 61.87876 | -147.74093 | 36734 ft | 505 kts | 80° |
| 2026-05-05 09:24 | 61.89727 | -147.59717 | 36742 ft | 505 kts | 80° |
| 2026-05-05 09:24 | 61.91563 | -147.45325 | 36749 ft | 505 kts | 81° |
| 2026-05-05 09:25 | 61.93383 | -147.30936 | 36750 ft | 504 kts | 81° |
| 2026-05-05 09:25 | 61.95173 | -147.16634 | 36752 ft | 504 kts | 81° |
| 2026-05-05 09:26 | 61.96960 | -147.02224 | 36757 ft | 505 kts | 81° |
| 2026-05-05 09:26 | 61.98735 | -146.87776 | 36764 ft | 505 kts | 81° |
| 2026-05-05 09:27 | 62.00498 | -146.73282 | 36766 ft | 506 kts | 82° |
| 2026-05-05 09:27 | 62.02249 | -146.58755 | 36769 ft | 507 kts | 82° |
| 2026-05-05 09:28 | 62.03997 | -146.44105 | 36778 ft | 507 kts | 82° |
| 2026-05-05 09:28 | 62.05718 | -146.29538 | 36782 ft | 507 kts | 82° |
| 2026-05-05 09:29 | 62.07412 | -146.15049 | 36785 ft | 507 kts | 82° |
| 2026-05-05 09:29 | 62.09103 | -146.00437 | 36778 ft | 508 kts | 82° |
| 2026-05-05 09:30 | 62.10792 | -145.85693 | 36778 ft | 508 kts | 82° |
| 2026-05-05 09:30 | 62.12452 | -145.71061 | 36768 ft | 508 kts | 82° |
| 2026-05-05 09:31 | 62.14091 | -145.56453 | 36761 ft | 509 kts | 82° |
| 2026-05-05 09:31 | 62.15459 | -145.41672 | 36769 ft | 503 kts | 90° |
| 2026-05-05 09:32 | 62.16088 | -145.26803 | 36764 ft | 502 kts | 91° |
| 2026-05-05 09:33 | 62.17088 | -144.97594 | 36786 ft | 503 kts | 92° |
| 2026-05-05 09:33 | 62.17585 | -144.82654 | 36792 ft | 504 kts | 92° |
| 2026-05-05 09:34 | 62.18067 | -144.67901 | 36808 ft | 505 kts | 92° |
| 2026-05-05 09:34 | 62.18539 | -144.52919 | 36799 ft | 505 kts | 92° |
| 2026-05-05 09:35 | 62.18996 | -144.37899 | 36805 ft | 506 kts | 92° |
| 2026-05-05 09:35 | 62.19513 | -144.20228 | 36798 ft | 506 kts | 92° |
| 2026-05-05 09:36 | 62.19907 | -144.06137 | 36785 ft | 506 kts | 92° |
| 2026-05-05 09:36 | 62.20316 | -143.90966 | 36785 ft | 506 kts | 92° |
| 2026-05-05 09:37 | 62.20707 | -143.75890 | 36779 ft | 506 kts | 92° |
| 2026-05-05 09:37 | 62.21082 | -143.60827 | 36775 ft | 506 kts | 92° |
| 2026-05-05 09:38 | 62.21445 | -143.45765 | 36773 ft | 506 kts | 92° |
| 2026-05-05 09:38 | 62.21786 | -143.30720 | 36765 ft | 506 kts | 93° |
| 2026-05-05 09:39 | 62.22108 | -143.15642 | 36757 ft | 506 kts | 93° |
| 2026-05-05 09:39 | 62.22412 | -143.00677 | 36745 ft | 506 kts | 93° |
| 2026-05-05 09:40 | 62.22704 | -142.85612 | 36747 ft | 506 kts | 93° |
| 2026-05-05 09:40 | 62.22982 | -142.70464 | 36733 ft | 506 kts | 94° |
| 2026-05-05 09:41 | 62.23240 | -142.55510 | 36721 ft | 505 kts | 94° |
| 2026-05-05 09:41 | 62.23483 | -142.40453 | 36722 ft | 505 kts | 94° |
| 2026-05-05 09:42 | 62.23709 | -142.25397 | 36710 ft | 505 kts | 94° |
| 2026-05-05 09:42 | 62.23906 | -142.10347 | 36712 ft | 504 kts | 94° |
| 2026-05-05 09:43 | 62.24106 | -141.95293 | 36704 ft | 504 kts | 94° |
| 2026-05-05 09:43 | 62.24289 | -141.80262 | 36715 ft | 505 kts | 95° |
| 2026-05-05 09:44 | 62.24453 | -141.65216 | 36701 ft | 505 kts | 95° |
| 2026-05-05 09:44 | 62.24598 | -141.50177 | 36702 ft | 504 kts | 95° |
| 2026-05-05 09:45 | 62.24725 | -141.35150 | 36704 ft | 503 kts | 95° |
| 2026-05-05 09:45 | 62.24836 | -141.20129 | 36705 ft | 503 kts | 95° |
| 2026-05-05 09:46 | 62.24929 | -141.05141 | 36708 ft | 502 kts | 96° |
| 2026-05-05 09:46 | 62.24305 | -140.90411 | 36709 ft | 494 kts | 104° |
| 2026-05-05 09:47 | 62.23287 | -140.75846 | 36707 ft | 493 kts | 105° |
| 2026-05-05 09:47 | 62.22208 | -140.61332 | 36716 ft | 493 kts | 106° |
| 2026-05-05 09:48 | 62.21122 | -140.46781 | 36730 ft | 494 kts | 106° |
| 2026-05-05 09:48 | 62.20035 | -140.32247 | 36728 ft | 495 kts | 106° |
| 2026-05-05 09:49 | 62.18931 | -140.17676 | 36720 ft | 496 kts | 106° |
| 2026-05-05 09:49 | 62.17812 | -140.03111 | 36725 ft | 497 kts | 106° |
| 2026-05-05 09:50 | 62.16674 | -139.88517 | 36729 ft | 498 kts | 107° |
| 2026-05-05 09:50 | 62.15524 | -139.73990 | 36725 ft | 499 kts | 107° |
| 2026-05-05 09:51 | 62.14345 | -139.59291 | 36719 ft | 499 kts | 107° |
| 2026-05-05 09:51 | 62.13156 | -139.44642 | 36716 ft | 499 kts | 107° |
| 2026-05-05 09:52 | 62.11953 | -139.30039 | 36710 ft | 500 kts | 107° |
| 2026-05-05 09:52 | 62.10732 | -139.15422 | 36709 ft | 501 kts | 107° |
| 2026-05-05 09:53 | 62.09502 | -139.00853 | 36698 ft | 501 kts | 108° |
| 2026-05-05 09:53 | 62.08248 | -138.86249 | 36695 ft | 501 kts | 108° |
| 2026-05-05 09:54 | 62.06975 | -138.71646 | 36690 ft | 501 kts | 108° |
| 2026-05-05 09:54 | 62.05688 | -138.57037 | 36697 ft | 502 kts | 108° |
| 2026-05-05 09:55 | 62.04385 | -138.42403 | 36696 ft | 502 kts | 108° |
| 2026-05-05 09:55 | 62.03064 | -138.27781 | 36704 ft | 503 kts | 108° |
| 2026-05-05 09:56 | 62.01727 | -138.13160 | 36711 ft | 504 kts | 109° |
| 2026-05-05 09:56 | 62.00371 | -137.98514 | 36721 ft | 504 kts | 109° |
| 2026-05-05 09:57 | 61.99000 | -137.83892 | 36735 ft | 506 kts | 109° |
| 2026-05-05 09:57 | 61.97605 | -137.69187 | 36740 ft | 506 kts | 109° |
| 2026-05-05 09:58 | 61.96200 | -137.54538 | 36741 ft | 506 kts | 109° |
| 2026-05-05 09:58 | 61.94775 | -137.39875 | 36758 ft | 507 kts | 109° |
| 2026-05-05 09:59 | 61.93331 | -137.25195 | 36771 ft | 508 kts | 110° |
| 2026-05-05 09:59 | 61.91871 | -137.10522 | 36779 ft | 509 kts | 110° |
| 2026-05-05 10:00 | 61.90393 | -136.95847 | 36797 ft | 509 kts | 110° |
| 2026-05-05 10:00 | 61.88894 | -136.81134 | 36799 ft | 510 kts | 110° |
| 2026-05-05 10:01 | 61.87383 | -136.66452 | 36804 ft | 511 kts | 110° |
| 2026-05-05 10:01 | 61.85851 | -136.51743 | 36825 ft | 512 kts | 110° |
| 2026-05-05 10:02 | 61.84300 | -136.37019 | 36829 ft | 512 kts | 110° |
| 2026-05-05 10:02 | 61.82999 | -136.24789 | 36838 ft | 513 kts | 110° |
| 2026-05-05 10:03 | 61.81416 | -136.10043 | 36846 ft | 513 kts | 110° |
| 2026-05-05 10:03 | 61.79815 | -135.95307 | 36854 ft | 514 kts | 110° |
| 2026-05-05 10:04 | 61.78192 | -135.80561 | 36853 ft | 516 kts | 110° |
| 2026-05-05 10:04 | 61.76551 | -135.65788 | 36850 ft | 517 kts | 111° |
| 2026-05-05 10:05 | 61.74892 | -135.50995 | 36857 ft | 518 kts | 111° |
| 2026-05-05 10:05 | 61.73211 | -135.36180 | 36860 ft | 520 kts | 111° |
| 2026-05-05 10:06 | 61.71513 | -135.21365 | 36876 ft | 520 kts | 111° |
| 2026-05-05 10:06 | 61.69796 | -135.06547 | 36875 ft | 521 kts | 111° |
| 2026-05-05 10:07 | 61.68060 | -134.91718 | 36875 ft | 522 kts | 111° |
| 2026-05-05 10:07 | 61.66307 | -134.76894 | 36876 ft | 523 kts | 111° |
| 2026-05-05 10:08 | 61.64545 | -134.62145 | 36878 ft | 523 kts | 111° |
| 2026-05-05 10:08 | 61.62745 | -134.47223 | 36888 ft | 524 kts | 111° |
| 2026-05-05 10:09 | 61.60945 | -134.32466 | 36891 ft | 525 kts | 111° |
| 2026-05-05 10:09 | 61.59116 | -134.17619 | 36896 ft | 525 kts | 111° |
| 2026-05-05 10:10 | 61.57273 | -134.02804 | 36914 ft | 526 kts | 111° |
| 2026-05-05 10:10 | 61.55407 | -133.87942 | 36938 ft | 527 kts | 111° |
| 2026-05-05 10:11 | 61.53521 | -133.73072 | 36950 ft | 528 kts | 111° |
| 2026-05-05 10:11 | 61.51613 | -133.58199 | 36972 ft | 529 kts | 111° |
| 2026-05-05 10:12 | 61.49688 | -133.43336 | 36980 ft | 530 kts | 111° |
| 2026-05-05 10:12 | 61.47755 | -133.28525 | 36992 ft | 530 kts | 111° |
| 2026-05-05 10:13 | 61.45789 | -133.13607 | 37003 ft | 531 kts | 111° |
| 2026-05-05 10:13 | 61.43800 | -132.98657 | 37013 ft | 532 kts | 111° |
| 2026-05-05 10:14 | 61.41803 | -132.83792 | 37023 ft | 533 kts | 111° |
| 2026-05-05 10:14 | 61.39779 | -132.68863 | 37018 ft | 534 kts | 112° |
| 2026-05-05 10:15 | 61.37740 | -132.53974 | 37025 ft | 535 kts | 111° |
| 2026-05-05 10:15 | 61.35675 | -132.39028 | 37032 ft | 536 kts | 111° |
| 2026-05-05 10:16 | 61.33601 | -132.24151 | 37029 ft | 536 kts | 111° |
| 2026-05-05 10:16 | 61.31517 | -132.09336 | 37017 ft | 537 kts | 111° |
| 2026-05-05 10:17 | 61.29399 | -131.94414 | 37035 ft | 538 kts | 111° |
| 2026-05-05 10:17 | 61.27255 | -131.79464 | 37024 ft | 539 kts | 111° |
| 2026-05-05 10:18 | 61.25086 | -131.64468 | 37028 ft | 539 kts | 111° |
| 2026-05-05 10:18 | 61.22923 | -131.49642 | 37022 ft | 540 kts | 111° |
| 2026-05-05 10:19 | 61.20730 | -131.34752 | 37016 ft | 540 kts | 111° |
| 2026-05-05 10:19 | 61.18524 | -131.19895 | 37012 ft | 540 kts | 111° |
| 2026-05-05 10:20 | 61.16306 | -131.05107 | 37011 ft | 539 kts | 111° |
| 2026-05-05 10:20 | 61.14054 | -130.90197 | 37011 ft | 540 kts | 111° |
| 2026-05-05 10:21 | 61.11797 | -130.75385 | 37013 ft | 539 kts | 111° |
| 2026-05-05 10:21 | 61.09536 | -130.60661 | 37009 ft | 538 kts | 111° |
| 2026-05-05 10:22 | 61.07255 | -130.45926 | 37019 ft | 539 kts | 111° |
| 2026-05-05 10:22 | 61.04957 | -130.31223 | 37037 ft | 540 kts | 111° |
| 2026-05-05 10:23 | 61.02624 | -130.16434 | 37054 ft | 540 kts | 111° |
| 2026-05-05 10:23 | 61.00196 | -130.01807 | 37049 ft | 537 kts | 117° |
| 2026-05-05 10:24 | 60.96772 | -129.88648 | 37047 ft | 532 kts | 125° |
| 2026-05-05 10:24 | 60.92951 | -129.75609 | 37054 ft | 532 kts | 126° |
| 2026-05-05 10:25 | 60.89286 | -129.63322 | 37056 ft | 532 kts | 126° |
| 2026-05-05 10:25 | 60.85402 | -129.50274 | 37059 ft | 532 kts | 126° |
| 2026-05-05 10:26 | 60.81558 | -129.37367 | 37071 ft | 533 kts | 126° |
| 2026-05-05 10:26 | 60.77698 | -129.24463 | 37055 ft | 533 kts | 126° |
| 2026-05-05 10:27 | 60.73820 | -129.11575 | 37077 ft | 534 kts | 126° |
| 2026-05-05 10:27 | 60.69901 | -128.98627 | 37076 ft | 534 kts | 126° |
| 2026-05-05 10:28 | 60.65977 | -128.85736 | 37083 ft | 534 kts | 126° |
| 2026-05-05 10:28 | 60.62038 | -128.72865 | 37088 ft | 535 kts | 126° |
| 2026-05-05 10:29 | 60.58096 | -128.60060 | 37085 ft | 535 kts | 126° |
| 2026-05-05 10:29 | 60.54146 | -128.47296 | 37090 ft | 535 kts | 126° |
| 2026-05-05 10:30 | 60.50155 | -128.34473 | 37090 ft | 536 kts | 126° |
| 2026-05-05 10:30 | 60.46161 | -128.21713 | 37094 ft | 536 kts | 126° |
| 2026-05-05 10:31 | 60.42151 | -128.08972 | 37090 ft | 536 kts | 126° |
| 2026-05-05 10:31 | 60.38141 | -127.96295 | 37090 ft | 536 kts | 126° |
| 2026-05-05 10:32 | 60.34095 | -127.83580 | 37094 ft | 537 kts | 126° |
| 2026-05-05 10:32 | 60.30052 | -127.70940 | 37093 ft | 537 kts | 126° |
| 2026-05-05 10:33 | 60.25978 | -127.58278 | 37091 ft | 538 kts | 126° |
| 2026-05-05 10:33 | 60.21899 | -127.45667 | 37096 ft | 538 kts | 126° |
| 2026-05-05 10:34 | 60.17811 | -127.33091 | 37097 ft | 538 kts | 126° |
| 2026-05-05 10:34 | 60.13699 | -127.20514 | 37098 ft | 538 kts | 126° |
| 2026-05-05 10:35 | 60.09606 | -127.08062 | 37093 ft | 539 kts | 126° |
| 2026-05-05 10:35 | 60.05468 | -126.95535 | 37097 ft | 539 kts | 126° |
| 2026-05-05 10:36 | 60.01311 | -126.83026 | 37091 ft | 539 kts | 126° |
| 2026-05-05 10:36 | 59.97151 | -126.70572 | 37092 ft | 540 kts | 126° |
| 2026-05-05 10:37 | 59.92963 | -126.58099 | 37089 ft | 540 kts | 126° |
| 2026-05-05 10:37 | 59.88802 | -126.45772 | 37088 ft | 541 kts | 126° |
| 2026-05-05 10:38 | 59.84586 | -126.33350 | 37083 ft | 541 kts | 126° |
| 2026-05-05 10:38 | 59.80361 | -126.20965 | 37088 ft | 541 kts | 126° |
| 2026-05-05 10:39 | 59.76117 | -126.08593 | 37088 ft | 542 kts | 126° |
| 2026-05-05 10:39 | 59.71871 | -125.96276 | 37099 ft | 542 kts | 126° |
| 2026-05-05 10:40 | 59.67588 | -125.83921 | 37104 ft | 543 kts | 126° |
| 2026-05-05 10:40 | 59.63306 | -125.71632 | 37113 ft | 543 kts | 126° |
| 2026-05-05 10:41 | 59.59009 | -125.59362 | 37122 ft | 543 kts | 126° |
| 2026-05-05 10:41 | 59.54693 | -125.47105 | 37127 ft | 544 kts | 126° |
| 2026-05-05 10:42 | 59.48206 | -125.28800 | 37132 ft | 544 kts | 126° |
| 2026-05-05 10:43 | 59.43899 | -125.16725 | 37136 ft | 544 kts | 126° |
| 2026-05-05 10:43 | 59.39497 | -125.04447 | 37138 ft | 544 kts | 126° |
| 2026-05-05 10:44 | 59.35165 | -124.92425 | 37137 ft | 544 kts | 126° |
| 2026-05-05 10:44 | 59.30777 | -124.80313 | 37136 ft | 545 kts | 126° |
| 2026-05-05 10:45 | 59.26352 | -124.68162 | 37139 ft | 545 kts | 126° |
| 2026-05-05 10:45 | 59.21995 | -124.56254 | 37145 ft | 545 kts | 126° |
| 2026-05-05 10:46 | 59.17554 | -124.44182 | 37142 ft | 545 kts | 126° |
| 2026-05-05 10:46 | 59.13119 | -124.32188 | 37147 ft | 545 kts | 126° |
| 2026-05-05 10:47 | 59.08676 | -124.20234 | 37154 ft | 545 kts | 126° |
| 2026-05-05 10:47 | 59.04223 | -124.08312 | 37157 ft | 546 kts | 126° |
| 2026-05-05 10:48 | 58.99744 | -123.96379 | 37163 ft | 546 kts | 126° |
| 2026-05-05 10:48 | 58.95261 | -123.84496 | 37156 ft | 546 kts | 126° |
| 2026-05-05 10:49 | 58.90756 | -123.72615 | 37171 ft | 547 kts | 126° |
| 2026-05-05 10:49 | 58.86256 | -123.60808 | 37173 ft | 547 kts | 126° |
| 2026-05-05 10:50 | 58.81722 | -123.48971 | 37179 ft | 547 kts | 126° |
| 2026-05-05 10:50 | 58.77191 | -123.37199 | 37179 ft | 548 kts | 126° |
| 2026-05-05 10:51 | 58.73405 | -123.27408 | 37179 ft | 548 kts | 126° |
| 2026-05-05 10:51 | 58.68844 | -123.15665 | 37177 ft | 549 kts | 126° |
| 2026-05-05 10:52 | 58.64260 | -123.03924 | 37179 ft | 549 kts | 126° |
| 2026-05-05 10:52 | 58.59658 | -122.92193 | 37178 ft | 549 kts | 126° |
| 2026-05-05 10:53 | 58.55051 | -122.80508 | 37180 ft | 550 kts | 126° |
| 2026-05-05 10:53 | 58.50438 | -122.68863 | 37188 ft | 550 kts | 126° |
| 2026-05-05 10:54 | 58.45802 | -122.57220 | 37190 ft | 550 kts | 126° |
| 2026-05-05 10:54 | 58.41153 | -122.45601 | 37194 ft | 550 kts | 126° |
| 2026-05-05 10:55 | 58.36505 | -122.34041 | 37192 ft | 550 kts | 126° |
| 2026-05-05 10:55 | 58.31828 | -122.22465 | 37193 ft | 551 kts | 126° |
| 2026-05-05 10:56 | 58.27145 | -122.10931 | 37197 ft | 551 kts | 126° |
| 2026-05-05 10:56 | 58.22462 | -121.99454 | 37204 ft | 551 kts | 126° |
| 2026-05-05 10:57 | 58.17757 | -121.87977 | 37206 ft | 551 kts | 126° |
| 2026-05-05 10:57 | 58.13041 | -121.76528 | 37212 ft | 551 kts | 126° |
| 2026-05-05 10:58 | 58.08336 | -121.65162 | 37217 ft | 552 kts | 126° |
| 2026-05-05 10:58 | 58.03626 | -121.53838 | 37221 ft | 552 kts | 126° |
| 2026-05-05 10:59 | 57.98835 | -121.42374 | 37199 ft | 552 kts | 126° |
| 2026-05-05 10:59 | 57.94081 | -121.31052 | 37202 ft | 552 kts | 126° |
| 2026-05-05 11:00 | 57.89338 | -121.19811 | 37200 ft | 552 kts | 126° |
| 2026-05-05 11:00 | 57.84558 | -121.08537 | 37201 ft | 552 kts | 126° |
| 2026-05-05 11:01 | 57.79741 | -120.97227 | 37211 ft | 552 kts | 126° |
| 2026-05-05 11:01 | 57.74973 | -120.86086 | 37218 ft | 552 kts | 127° |
| 2026-05-05 11:02 | 57.70157 | -120.74884 | 37211 ft | 552 kts | 126° |
| 2026-05-05 11:02 | 57.65324 | -120.63697 | 37220 ft | 553 kts | 127° |
| 2026-05-05 11:03 | 57.60483 | -120.52545 | 37226 ft | 553 kts | 126° |
| 2026-05-05 11:03 | 57.55736 | -120.41659 | 37237 ft | 553 kts | 127° |
| 2026-05-05 11:04 | 57.50872 | -120.30556 | 37242 ft | 553 kts | 127° |
| 2026-05-05 11:04 | 57.45993 | -120.19472 | 37242 ft | 554 kts | 127° |
| 2026-05-05 11:05 | 57.41104 | -120.08415 | 37248 ft | 554 kts | 127° |
| 2026-05-05 11:05 | 57.36205 | -119.97388 | 37253 ft | 555 kts | 127° |
| 2026-05-05 11:06 | 57.31290 | -119.86376 | 37254 ft | 555 kts | 127° |
| 2026-05-05 11:06 | 57.26366 | -119.75395 | 37253 ft | 555 kts | 127° |
| 2026-05-05 11:07 | 57.21449 | -119.64478 | 37253 ft | 555 kts | 127° |
| 2026-05-05 11:07 | 57.16615 | -119.53795 | 37252 ft | 555 kts | 127° |
| 2026-05-05 11:08 | 57.11683 | -119.42944 | 37256 ft | 555 kts | 127° |
| 2026-05-05 11:08 | 57.06717 | -119.32071 | 37264 ft | 555 kts | 127° |
| 2026-05-05 11:09 | 57.01750 | -119.21244 | 37265 ft | 555 kts | 127° |
| 2026-05-05 11:09 | 56.96809 | -119.10523 | 37264 ft | 555 kts | 126° |
| 2026-05-05 11:10 | 56.91817 | -118.99739 | 37275 ft | 555 kts | 126° |
| 2026-05-05 11:10 | 56.86814 | -118.88979 | 37266 ft | 555 kts | 126° |
| 2026-05-05 11:11 | 56.81809 | -118.78265 | 37272 ft | 555 kts | 126° |
| 2026-05-05 11:11 | 56.76793 | -118.67574 | 37268 ft | 555 kts | 126° |
| 2026-05-05 11:12 | 56.71763 | -118.56902 | 37261 ft | 555 kts | 127° |
| 2026-05-05 11:12 | 56.66724 | -118.46260 | 37267 ft | 555 kts | 127° |
| 2026-05-05 11:13 | 56.61674 | -118.35641 | 37269 ft | 555 kts | 127° |
| 2026-05-05 11:13 | 56.56627 | -118.25076 | 37280 ft | 556 kts | 127° |
| 2026-05-05 11:14 | 56.51557 | -118.14509 | 37275 ft | 556 kts | 127° |
| 2026-05-05 11:14 | 56.46482 | -118.03979 | 37267 ft | 556 kts | 127° |
| 2026-05-05 11:15 | 56.41400 | -117.93482 | 37265 ft | 556 kts | 127° |
| 2026-05-05 11:15 | 56.36332 | -117.83059 | 37253 ft | 557 kts | 127° |
| 2026-05-05 11:16 | 56.31223 | -117.72598 | 37242 ft | 557 kts | 127° |
| 2026-05-05 11:16 | 56.26103 | -117.62159 | 37226 ft | 557 kts | 127° |
| 2026-05-05 11:17 | 56.21040 | -117.51883 | 37221 ft | 557 kts | 127° |
| 2026-05-05 11:17 | 56.16164 | -117.41140 | 37223 ft | 552 kts | 121° |
| 2026-05-05 11:18 | 56.11697 | -117.29965 | 37231 ft | 552 kts | 120° |
| 2026-05-05 11:18 | 56.07205 | -117.18835 | 37249 ft | 552 kts | 121° |
| 2026-05-05 11:19 | 56.02608 | -117.07775 | 37268 ft | 553 kts | 121° |
| 2026-05-05 11:19 | 55.98002 | -116.96861 | 37287 ft | 553 kts | 121° |
| 2026-05-05 11:20 | 55.93427 | -116.86081 | 37288 ft | 553 kts | 121° |
| 2026-05-05 11:20 | 55.88803 | -116.75221 | 37291 ft | 554 kts | 121° |
| 2026-05-05 11:21 | 55.84141 | -116.64314 | 37297 ft | 554 kts | 121° |
| 2026-05-05 11:21 | 55.79486 | -116.53468 | 37297 ft | 554 kts | 121° |
| 2026-05-05 11:22 | 55.74830 | -116.42669 | 37303 ft | 555 kts | 121° |
| 2026-05-05 11:22 | 55.70176 | -116.31923 | 37284 ft | 555 kts | 121° |
| 2026-05-05 11:23 | 55.65464 | -116.21092 | 37298 ft | 556 kts | 122° |
| 2026-05-05 11:23 | 55.60739 | -116.10279 | 37302 ft | 556 kts | 122° |
| 2026-05-05 11:24 | 55.55996 | -115.99471 | 37302 ft | 557 kts | 122° |
| 2026-05-05 11:24 | 55.51236 | -115.88673 | 37302 ft | 557 kts | 122° |
| 2026-05-05 11:25 | 55.46469 | -115.77905 | 37307 ft | 558 kts | 122° |
| 2026-05-05 11:25 | 55.41681 | -115.67137 | 37306 ft | 558 kts | 122° |
| 2026-05-05 11:26 | 55.36883 | -115.56396 | 37308 ft | 559 kts | 122° |
| 2026-05-05 11:26 | 55.32080 | -115.45690 | 37306 ft | 559 kts | 122° |
| 2026-05-05 11:27 | 55.27254 | -115.34981 | 37305 ft | 559 kts | 122° |
| 2026-05-05 11:27 | 55.22409 | -115.24276 | 37279 ft | 560 kts | 122° |
| 2026-05-05 11:28 | 55.17616 | -115.13731 | 37280 ft | 560 kts | 122° |
| 2026-05-05 11:28 | 55.12785 | -115.03152 | 37263 ft | 559 kts | 122° |
| 2026-05-05 11:29 | 55.07914 | -114.92529 | 37274 ft | 559 kts | 122° |
| 2026-05-05 11:29 | 55.03177 | -114.82240 | 37282 ft | 559 kts | 122° |
| 2026-05-05 11:30 | 54.98568 | -114.72270 | 37295 ft | 558 kts | 122° |
| 2026-05-05 11:30 | 54.93736 | -114.61860 | 37313 ft | 558 kts | 122° |
| 2026-05-05 11:31 | 54.88854 | -114.51388 | 37314 ft | 557 kts | 122° |
| 2026-05-05 11:31 | 54.84168 | -114.41380 | 37318 ft | 557 kts | 122° |
| 2026-05-05 11:32 | 54.79253 | -114.30928 | 37314 ft | 557 kts | 122° |
| 2026-05-05 11:32 | 54.74389 | -114.20627 | 37310 ft | 557 kts | 122° |
| 2026-05-05 11:33 | 54.69605 | -114.10538 | 37306 ft | 557 kts | 122° |
| 2026-05-05 11:33 | 54.64794 | -114.00432 | 37305 ft | 557 kts | 122° |
| 2026-05-05 11:34 | 54.59854 | -113.90097 | 37304 ft | 557 kts | 122° |
| 2026-05-05 11:34 | 54.54941 | -113.79863 | 37306 ft | 557 kts | 122° |
| 2026-05-05 11:35 | 54.49999 | -113.69612 | 37303 ft | 557 kts | 122° |
| 2026-05-05 11:35 | 54.45035 | -113.59359 | 37309 ft | 557 kts | 122° |
| 2026-05-05 11:36 | 54.40069 | -113.49142 | 37309 ft | 557 kts | 123° |
| 2026-05-05 11:36 | 54.35096 | -113.38954 | 37312 ft | 557 kts | 123° |
| 2026-05-05 11:37 | 54.30112 | -113.28787 | 37312 ft | 557 kts | 123° |
| 2026-05-05 11:37 | 54.25170 | -113.18747 | 37309 ft | 556 kts | 123° |
| 2026-05-05 11:38 | 54.20975 | -113.10257 | 37316 ft | 556 kts | 123° |
| 2026-05-05 11:38 | 54.15163 | -112.98542 | 37312 ft | 556 kts | 123° |
| 2026-05-05 11:39 | 54.10997 | -112.90178 | 37310 ft | 556 kts | 123° |
| 2026-05-05 11:39 | 54.05987 | -112.80156 | 37304 ft | 555 kts | 123° |
| 2026-05-05 11:40 | 54.00980 | -112.70183 | 37306 ft | 555 kts | 123° |
| 2026-05-05 11:40 | 53.95978 | -112.60261 | 37308 ft | 554 kts | 123° |
| 2026-05-05 11:41 | 53.90952 | -112.50329 | 37310 ft | 554 kts | 123° |
| 2026-05-05 11:41 | 53.85915 | -112.40416 | 37313 ft | 553 kts | 124° |
| 2026-05-05 11:42 | 53.80889 | -112.30565 | 37309 ft | 553 kts | 124° |
| 2026-05-05 11:42 | 53.75860 | -112.20747 | 37309 ft | 552 kts | 124° |
| 2026-05-05 11:43 | 53.70819 | -112.10944 | 37310 ft | 552 kts | 124° |
| 2026-05-05 11:43 | 53.65786 | -112.01196 | 37311 ft | 551 kts | 124° |
| 2026-05-05 11:44 | 53.60745 | -111.91471 | 37312 ft | 551 kts | 124° |
| 2026-05-05 11:44 | 53.55697 | -111.81770 | 37313 ft | 550 kts | 124° |
| 2026-05-05 11:45 | 53.50651 | -111.72112 | 37316 ft | 550 kts | 125° |
| 2026-05-05 11:45 | 53.45600 | -111.62481 | 37311 ft | 549 kts | 125° |
| 2026-05-05 11:46 | 53.40553 | -111.52896 | 37309 ft | 548 kts | 125° |
| 2026-05-05 11:46 | 53.35498 | -111.43335 | 37308 ft | 547 kts | 125° |
| 2026-05-05 11:47 | 53.30447 | -111.33815 | 37310 ft | 547 kts | 126° |
| 2026-05-05 11:47 | 53.25429 | -111.24399 | 37299 ft | 546 kts | 126° |
| 2026-05-05 11:48 | 53.17809 | -111.10157 | 37302 ft | 545 kts | 126° |
| 2026-05-05 11:48 | 53.12762 | -111.00772 | 37297 ft | 544 kts | 126° |
| 2026-05-05 11:49 | 53.07699 | -110.91393 | 37295 ft | 544 kts | 126° |
| 2026-05-05 11:49 | 53.02893 | -110.81775 | 37293 ft | 535 kts | 116° |
| 2026-05-05 11:50 | 52.99005 | -110.71315 | 37293 ft | 531 kts | 114° |
| 2026-05-05 11:50 | 52.95265 | -110.60739 | 37289 ft | 530 kts | 114° |
| 2026-05-05 11:51 | 52.91548 | -110.50231 | 37276 ft | 530 kts | 114° |
| 2026-05-05 11:51 | 52.87784 | -110.39706 | 37278 ft | 529 kts | 115° |
| 2026-05-05 11:52 | 52.84016 | -110.29247 | 37273 ft | 529 kts | 115° |
| 2026-05-05 11:52 | 52.80252 | -110.18850 | 37281 ft | 529 kts | 115° |
| 2026-05-05 11:53 | 52.76487 | -110.08489 | 37269 ft | 528 kts | 115° |
| 2026-05-05 11:53 | 52.72695 | -109.98095 | 37269 ft | 528 kts | 115° |
| 2026-05-05 11:54 | 52.68909 | -109.87761 | 37268 ft | 527 kts | 116° |
| 2026-05-05 11:54 | 52.65105 | -109.77418 | 37270 ft | 527 kts | 116° |
| 2026-05-05 11:55 | 52.61294 | -109.67101 | 37270 ft | 527 kts | 116° |
| 2026-05-05 11:55 | 52.57482 | -109.56824 | 37266 ft | 526 kts | 116° |
| 2026-05-05 11:56 | 52.53669 | -109.46584 | 37269 ft | 525 kts | 116° |
| 2026-05-05 11:56 | 52.49845 | -109.36357 | 37261 ft | 525 kts | 116° |
| 2026-05-05 11:57 | 52.46021 | -109.26170 | 37274 ft | 525 kts | 117° |
| 2026-05-05 11:57 | 52.42181 | -109.15981 | 37260 ft | 525 kts | 117° |
| 2026-05-05 11:58 | 52.38334 | -109.05816 | 37269 ft | 525 kts | 117° |
| 2026-05-05 11:58 | 52.34486 | -108.95688 | 37268 ft | 524 kts | 117° |
| 2026-05-05 11:59 | 52.30625 | -108.85569 | 37263 ft | 524 kts | 117° |
| 2026-05-05 11:59 | 52.26759 | -108.75475 | 37263 ft | 524 kts | 117° |
| 2026-05-05 12:00 | 52.22890 | -108.65412 | 37262 ft | 524 kts | 117° |
| 2026-05-05 12:00 | 52.19006 | -108.55350 | 37262 ft | 524 kts | 117° |
| 2026-05-05 12:01 | 52.15112 | -108.45303 | 37256 ft | 524 kts | 118° |
| 2026-05-05 12:01 | 52.11221 | -108.35304 | 37254 ft | 524 kts | 118° |
| 2026-05-05 12:02 | 52.07324 | -108.25328 | 37253 ft | 524 kts | 118° |
| 2026-05-05 12:02 | 52.03406 | -108.15338 | 37247 ft | 524 kts | 118° |
| 2026-05-05 12:03 | 51.99477 | -108.05358 | 37241 ft | 524 kts | 118° |
| 2026-05-05 12:03 | 51.95547 | -107.95412 | 37236 ft | 523 kts | 118° |
| 2026-05-05 12:04 | 51.91614 | -107.85501 | 37229 ft | 523 kts | 118° |
| 2026-05-05 12:04 | 51.87667 | -107.75592 | 37224 ft | 523 kts | 118° |
| 2026-05-05 12:05 | 51.83705 | -107.65683 | 37224 ft | 524 kts | 118° |
| 2026-05-05 12:05 | 51.79768 | -107.55873 | 37227 ft | 523 kts | 119° |
| 2026-05-05 12:06 | 51.75810 | -107.46049 | 37218 ft | 523 kts | 119° |
| 2026-05-05 12:06 | 51.71797 | -107.36127 | 37218 ft | 523 kts | 119° |
| 2026-05-05 12:07 | 51.67812 | -107.26313 | 37210 ft | 523 kts | 119° |
| 2026-05-05 12:07 | 51.63825 | -107.16531 | 37205 ft | 523 kts | 119° |
| 2026-05-05 12:08 | 51.59862 | -107.06843 | 37196 ft | 522 kts | 120° |
| 2026-05-05 12:08 | 51.55830 | -106.97026 | 37200 ft | 522 kts | 120° |
| 2026-05-05 12:09 | 51.51830 | -106.87322 | 37213 ft | 522 kts | 120° |
| 2026-05-05 12:09 | 51.47840 | -106.77678 | 37197 ft | 522 kts | 120° |
| 2026-05-05 12:10 | 51.43828 | -106.68017 | 37196 ft | 522 kts | 120° |
| 2026-05-05 12:10 | 51.39766 | -106.58275 | 37194 ft | 521 kts | 120° |
| 2026-05-05 12:11 | 51.35733 | -106.48636 | 37191 ft | 521 kts | 120° |
| 2026-05-05 12:11 | 51.31697 | -106.39028 | 37188 ft | 521 kts | 121° |
| 2026-05-05 12:12 | 51.27648 | -106.29422 | 37186 ft | 521 kts | 121° |
| 2026-05-05 12:12 | 51.23619 | -106.19898 | 37184 ft | 521 kts | 121° |
| 2026-05-05 12:13 | 51.19557 | -106.10333 | 37179 ft | 521 kts | 121° |
| 2026-05-05 12:13 | 51.15489 | -106.00792 | 37175 ft | 521 kts | 121° |
| 2026-05-05 12:14 | 51.11411 | -105.91258 | 37170 ft | 521 kts | 121° |
| 2026-05-05 12:14 | 51.07329 | -105.81751 | 37167 ft | 521 kts | 121° |
| 2026-05-05 12:15 | 51.03233 | -105.72247 | 37163 ft | 521 kts | 121° |
| 2026-05-05 12:15 | 50.99128 | -105.62753 | 37161 ft | 521 kts | 122° |
| 2026-05-05 12:16 | 50.95022 | -105.53297 | 37158 ft | 521 kts | 122° |
| 2026-05-05 12:16 | 50.90897 | -105.43829 | 37156 ft | 521 kts | 122° |
| 2026-05-05 12:17 | 50.86785 | -105.34425 | 37155 ft | 521 kts | 122° |
| 2026-05-05 12:17 | 50.82655 | -105.25013 | 37151 ft | 521 kts | 122° |
| 2026-05-05 12:18 | 50.78501 | -105.15579 | 37150 ft | 522 kts | 122° |
| 2026-05-05 12:18 | 50.74335 | -105.06151 | 37142 ft | 529 kts | 122° |
| 2026-05-05 12:19 | 50.70085 | -104.96566 | 37128 ft | 534 kts | 122° |
| 2026-05-05 12:19 | 50.66068 | -104.86695 | 37114 ft | 533 kts | 114° |
| 2026-05-05 12:20 | 50.62730 | -104.76268 | 37092 ft | 533 kts | 113° |
| 2026-05-05 12:20 | 50.59477 | -104.65773 | 37069 ft | 533 kts | 113° |
| 2026-05-05 12:21 | 50.56228 | -104.55304 | 37069 ft | 533 kts | 113° |
| 2026-05-05 12:21 | 50.53503 | -104.46589 | 37073 ft | 533 kts | 114° |
| 2026-05-05 12:22 | 50.50216 | -104.36147 | 37087 ft | 533 kts | 114° |
| 2026-05-05 12:22 | 50.46384 | -104.24034 | 37109 ft | 534 kts | 114° |
| 2026-05-05 12:23 | 50.43610 | -104.15302 | 37119 ft | 534 kts | 114° |
| 2026-05-05 12:23 | 50.40290 | -104.04889 | 37119 ft | 534 kts | 114° |
| 2026-05-05 12:24 | 50.36987 | -103.94574 | 37118 ft | 534 kts | 114° |
| 2026-05-05 12:24 | 50.33627 | -103.84123 | 37108 ft | 534 kts | 114° |
| 2026-05-05 12:25 | 50.30280 | -103.73754 | 37106 ft | 534 kts | 115° |
| 2026-05-05 12:25 | 50.26943 | -103.63464 | 37101 ft | 534 kts | 115° |
| 2026-05-05 12:26 | 50.23560 | -103.53072 | 37102 ft | 534 kts | 115° |
| 2026-05-05 12:26 | 50.20208 | -103.42816 | 37090 ft | 533 kts | 115° |
| 2026-05-05 12:27 | 50.16824 | -103.32507 | 37084 ft | 533 kts | 115° |
| 2026-05-05 12:27 | 50.13425 | -103.22195 | 37078 ft | 533 kts | 115° |
| 2026-05-05 12:28 | 50.10041 | -103.11969 | 37077 ft | 531 kts | 115° |
| 2026-05-05 12:28 | 50.06648 | -103.01760 | 37072 ft | 529 kts | 115° |
| 2026-05-05 12:29 | 50.03259 | -102.91603 | 37072 ft | 529 kts | 116° |
| 2026-05-05 12:29 | 49.99857 | -102.81445 | 37068 ft | 529 kts | 116° |
| 2026-05-05 12:30 | 49.96443 | -102.71294 | 37062 ft | 529 kts | 116° |
| 2026-05-05 12:30 | 49.93030 | -102.61187 | 37059 ft | 530 kts | 116° |
| 2026-05-05 12:31 | 49.89596 | -102.51059 | 37055 ft | 530 kts | 116° |
| 2026-05-05 12:31 | 49.86165 | -102.40981 | 37052 ft | 530 kts | 116° |
| 2026-05-05 12:32 | 49.82710 | -102.30871 | 37048 ft | 530 kts | 116° |
| 2026-05-05 12:32 | 49.79260 | -102.20814 | 37046 ft | 530 kts | 116° |
| 2026-05-05 12:33 | 49.75791 | -102.10742 | 37046 ft | 530 kts | 117° |
| 2026-05-05 12:33 | 49.72320 | -102.00706 | 37044 ft | 530 kts | 117° |
| 2026-05-05 12:34 | 49.68838 | -101.90675 | 37044 ft | 530 kts | 117° |
| 2026-05-05 12:34 | 49.65345 | -101.80654 | 37043 ft | 530 kts | 117° |
| 2026-05-05 12:35 | 49.61869 | -101.70720 | 37037 ft | 530 kts | 117° |
| 2026-05-05 12:35 | 49.58324 | -101.60625 | 37036 ft | 533 kts | 117° |
| 2026-05-05 12:36 | 49.54799 | -101.50630 | 37037 ft | 536 kts | 117° |
| 2026-05-05 12:36 | 49.51225 | -101.40533 | 37035 ft | 536 kts | 117° |
| 2026-05-05 12:37 | 49.47642 | -101.30453 | 37033 ft | 536 kts | 117° |
| 2026-05-05 12:37 | 49.44056 | -101.20401 | 37032 ft | 537 kts | 118° |
| 2026-05-05 12:38 | 49.40467 | -101.10382 | 37029 ft | 537 kts | 118° |
| 2026-05-05 12:38 | 49.36854 | -101.00335 | 37029 ft | 537 kts | 118° |
| 2026-05-05 12:39 | 49.33240 | -100.90322 | 37023 ft | 537 kts | 118° |
| 2026-05-05 12:39 | 49.29608 | -100.80299 | 37026 ft | 538 kts | 118° |
| 2026-05-05 12:40 | 49.25970 | -100.70296 | 37026 ft | 538 kts | 118° |
| 2026-05-05 12:40 | 49.22316 | -100.60289 | 37017 ft | 538 kts | 118° |
| 2026-05-05 12:41 | 49.18661 | -100.50319 | 37008 ft | 538 kts | 118° |
| 2026-05-05 12:41 | 49.14995 | -100.40358 | 37010 ft | 538 kts | 118° |
| 2026-05-05 12:42 | 49.11312 | -100.30387 | 37004 ft | 539 kts | 119° |
| 2026-05-05 12:42 | 49.07629 | -100.20454 | 37000 ft | 535 kts | 119° |
| 2026-05-05 12:43 | 49.03999 | -100.10700 | 37001 ft | 523 kts | 119° |
| 2026-05-05 12:43 | 49.00410 | -100.01093 | 37002 ft | 522 kts | 119° |
| 2026-05-05 12:44 | 48.96891 | -99.91440 | 36993 ft | 522 kts | 117° |
| 2026-05-05 12:44 | 48.93487 | -99.81685 | 36992 ft | 522 kts | 117° |
| 2026-05-05 12:45 | 48.90066 | -99.71929 | 36994 ft | 523 kts | 118° |
| 2026-05-05 12:45 | 48.86621 | -99.62225 | 36991 ft | 523 kts | 118° |
| 2026-05-05 12:46 | 48.83149 | -99.52516 | 36991 ft | 523 kts | 118° |
| 2026-05-05 12:46 | 48.79665 | -99.42814 | 36991 ft | 523 kts | 118° |
| 2026-05-05 12:47 | 48.76201 | -99.33201 | 36989 ft | 523 kts | 118° |
| 2026-05-05 12:47 | 48.72700 | -99.23518 | 36993 ft | 524 kts | 118° |
| 2026-05-05 12:48 | 48.69190 | -99.13847 | 36988 ft | 524 kts | 118° |
| 2026-05-05 12:48 | 48.65676 | -99.04199 | 36988 ft | 524 kts | 118° |
| 2026-05-05 12:49 | 48.62144 | -98.94538 | 36988 ft | 524 kts | 119° |
| 2026-05-05 12:49 | 48.58607 | -98.84897 | 36985 ft | 525 kts | 119° |
| 2026-05-05 12:50 | 48.55058 | -98.75262 | 36986 ft | 525 kts | 119° |
| 2026-05-05 12:50 | 48.51505 | -98.65649 | 36983 ft | 525 kts | 119° |
| 2026-05-05 12:51 | 48.47940 | -98.56040 | 36980 ft | 525 kts | 119° |
| 2026-05-05 12:51 | 48.44360 | -98.46427 | 36977 ft | 526 kts | 119° |
| 2026-05-05 12:52 | 48.40778 | -98.36842 | 36974 ft | 526 kts | 120° |
| 2026-05-05 12:52 | 48.37187 | -98.27265 | 36973 ft | 526 kts | 120° |
| 2026-05-05 12:53 | 48.33586 | -98.17700 | 36966 ft | 526 kts | 120° |
| 2026-05-05 12:53 | 48.29961 | -98.08107 | 36964 ft | 527 kts | 120° |
| 2026-05-05 12:54 | 48.24525 | -97.93782 | 36961 ft | 527 kts | 120° |
| 2026-05-05 12:55 | 48.20893 | -97.84253 | 36954 ft | 527 kts | 120° |
| 2026-05-05 12:55 | 48.17242 | -97.74711 | 36946 ft | 528 kts | 120° |
| 2026-05-05 12:56 | 48.13586 | -97.65188 | 36929 ft | 528 kts | 120° |
| 2026-05-05 12:56 | 48.09905 | -97.55636 | 36919 ft | 529 kts | 121° |
| 2026-05-05 12:57 | 48.06226 | -97.46122 | 36908 ft | 529 kts | 121° |
| 2026-05-05 12:57 | 48.02535 | -97.36611 | 36906 ft | 529 kts | 121° |
| 2026-05-05 12:58 | 47.98861 | -97.27178 | 36916 ft | 529 kts | 121° |
| 2026-05-05 12:58 | 47.95152 | -97.17687 | 36933 ft | 530 kts | 121° |
| 2026-05-05 12:59 | 47.91808 | -97.07896 | 36937 ft | 530 kts | 115° |
| 2026-05-05 12:59 | 47.88770 | -96.97867 | 36934 ft | 531 kts | 115° |
| 2026-05-05 13:00 | 47.84098 | -96.82906 | 36904 ft | 531 kts | 116° |
| 2026-05-05 13:01 | 47.77684 | -96.63077 | 36895 ft | 532 kts | 116° |
| 2026-05-05 13:01 | 47.74465 | -96.53192 | 36902 ft | 532 kts | 116° |
| 2026-05-05 13:02 | 47.71237 | -96.43305 | 36908 ft | 533 kts | 116° |
| 2026-05-05 13:02 | 47.67998 | -96.33420 | 36912 ft | 533 kts | 117° |
| 2026-05-05 13:03 | 47.64747 | -96.23538 | 36920 ft | 533 kts | 117° |
| 2026-05-05 13:03 | 47.61483 | -96.13655 | 36910 ft | 533 kts | 117° |
| 2026-05-05 13:04 | 47.58234 | -96.03855 | 36914 ft | 534 kts | 117° |
| 2026-05-05 13:04 | 47.54940 | -95.93959 | 36905 ft | 534 kts | 117° |
| 2026-05-05 13:05 | 47.51660 | -95.84140 | 36909 ft | 535 kts | 117° |
| 2026-05-05 13:05 | 47.48357 | -95.74292 | 36909 ft | 535 kts | 117° |
| 2026-05-05 13:06 | 47.45022 | -95.64384 | 36908 ft | 535 kts | 117° |
| 2026-05-05 13:06 | 47.41719 | -95.54610 | 36909 ft | 535 kts | 118° |
| 2026-05-05 13:07 | 47.38387 | -95.44787 | 36903 ft | 536 kts | 118° |
| 2026-05-05 13:07 | 47.35037 | -95.34947 | 36901 ft | 536 kts | 118° |
| 2026-05-05 13:08 | 47.31692 | -95.25160 | 36897 ft | 536 kts | 118° |
| 2026-05-05 13:08 | 47.28321 | -95.15333 | 36895 ft | 536 kts | 118° |
| 2026-05-05 13:09 | 47.24953 | -95.05554 | 36894 ft | 536 kts | 118° |
| 2026-05-05 13:09 | 47.21569 | -94.95763 | 36899 ft | 536 kts | 118° |
| 2026-05-05 13:10 | 47.18753 | -94.87643 | 36900 ft | 537 kts | 118° |
| 2026-05-05 13:10 | 47.15352 | -94.77870 | 36898 ft | 537 kts | 118° |
| 2026-05-05 13:11 | 47.11943 | -94.68111 | 36899 ft | 537 kts | 119° |
| 2026-05-05 13:11 | 47.08523 | -94.58358 | 36887 ft | 538 kts | 119° |
| 2026-05-05 13:12 | 47.05093 | -94.48609 | 36877 ft | 538 kts | 119° |
| 2026-05-05 13:12 | 47.01644 | -94.38844 | 36865 ft | 538 kts | 119° |
| 2026-05-05 13:13 | 46.98196 | -94.29120 | 36862 ft | 539 kts | 119° |
| 2026-05-05 13:13 | 46.94734 | -94.19391 | 36858 ft | 539 kts | 119° |
| 2026-05-05 13:14 | 46.91275 | -94.09704 | 36861 ft | 540 kts | 120° |
| 2026-05-05 13:14 | 46.87790 | -93.99982 | 36866 ft | 540 kts | 120° |
| 2026-05-05 13:15 | 46.84274 | -93.90207 | 36867 ft | 540 kts | 120° |
| 2026-05-05 13:15 | 46.80788 | -93.80554 | 36869 ft | 540 kts | 120° |
| 2026-05-05 13:16 | 46.77279 | -93.70869 | 36866 ft | 541 kts | 120° |
| 2026-05-05 13:16 | 46.73760 | -93.61193 | 36867 ft | 541 kts | 120° |
| 2026-05-05 13:17 | 46.70224 | -93.51506 | 36857 ft | 541 kts | 120° |
| 2026-05-05 13:17 | 46.66673 | -93.41815 | 36861 ft | 542 kts | 120° |
| 2026-05-05 13:18 | 46.63117 | -93.32141 | 36859 ft | 542 kts | 120° |
| 2026-05-05 13:18 | 46.59558 | -93.22497 | 36869 ft | 542 kts | 121° |
| 2026-05-05 13:19 | 46.55981 | -93.12839 | 36867 ft | 543 kts | 121° |
| 2026-05-05 13:19 | 46.52392 | -93.03182 | 36862 ft | 543 kts | 121° |
| 2026-05-05 13:20 | 46.48805 | -92.93564 | 36867 ft | 543 kts | 121° |
| 2026-05-05 13:20 | 46.45206 | -92.83949 | 36868 ft | 543 kts | 121° |
| 2026-05-05 13:21 | 46.41592 | -92.74328 | 36867 ft | 544 kts | 121° |
| 2026-05-05 13:21 | 46.37952 | -92.64674 | 36865 ft | 544 kts | 121° |
| 2026-05-05 13:22 | 46.34318 | -92.55068 | 36861 ft | 545 kts | 121° |
| 2026-05-05 13:22 | 46.30820 | -92.45853 | 36852 ft | 545 kts | 121° |
| 2026-05-05 13:23 | 46.27211 | -92.36382 | 36853 ft | 545 kts | 122° |
| 2026-05-05 13:23 | 46.23539 | -92.26774 | 36846 ft | 546 kts | 122° |
| 2026-05-05 13:24 | 46.19865 | -92.17198 | 36850 ft | 546 kts | 122° |
| 2026-05-05 13:24 | 46.16174 | -92.07612 | 36843 ft | 547 kts | 122° |
| 2026-05-05 13:25 | 46.12472 | -91.98031 | 36844 ft | 547 kts | 122° |
| 2026-05-05 13:25 | 46.08773 | -91.88490 | 36850 ft | 548 kts | 122° |
| 2026-05-05 13:26 | 46.05042 | -91.78901 | 36832 ft | 549 kts | 122° |
| 2026-05-05 13:26 | 46.01291 | -91.69291 | 36844 ft | 550 kts | 122° |
| 2026-05-05 13:27 | 45.97548 | -91.59737 | 36841 ft | 550 kts | 122° |
| 2026-05-05 13:27 | 45.93764 | -91.50114 | 36835 ft | 551 kts | 122° |
| 2026-05-05 13:28 | 45.89977 | -91.40515 | 36818 ft | 551 kts | 123° |
| 2026-05-05 13:28 | 45.86218 | -91.31020 | 36836 ft | 551 kts | 123° |
| 2026-05-05 13:29 | 45.82444 | -91.21519 | 36836 ft | 552 kts | 123° |
| 2026-05-05 13:29 | 45.78615 | -91.11914 | 36846 ft | 552 kts | 123° |
| 2026-05-05 13:30 | 45.74809 | -91.02398 | 36849 ft | 551 kts | 123° |
| 2026-05-05 13:30 | 45.70958 | -90.92807 | 36850 ft | 551 kts | 123° |
| 2026-05-05 13:31 | 45.67128 | -90.83300 | 36848 ft | 551 kts | 123° |
| 2026-05-05 13:31 | 45.63318 | -90.73872 | 36847 ft | 551 kts | 123° |
| 2026-05-05 13:32 | 45.59452 | -90.64339 | 36812 ft | 551 kts | 123° |
| 2026-05-05 13:32 | 45.55601 | -90.54874 | 36808 ft | 551 kts | 124° |
| 2026-05-05 13:33 | 45.51748 | -90.45436 | 36809 ft | 551 kts | 124° |
| 2026-05-05 13:33 | 45.47919 | -90.36091 | 36814 ft | 551 kts | 124° |
| 2026-05-05 13:34 | 45.44036 | -90.26644 | 36822 ft | 551 kts | 124° |
| 2026-05-05 13:34 | 45.40156 | -90.17239 | 36822 ft | 551 kts | 124° |
| 2026-05-05 13:35 | 45.36269 | -90.07847 | 36814 ft | 551 kts | 124° |
| 2026-05-05 13:35 | 45.32343 | -89.98391 | 36822 ft | 552 kts | 124° |
| 2026-05-05 13:36 | 45.28469 | -89.89093 | 36820 ft | 552 kts | 124° |
| 2026-05-05 13:36 | 45.24541 | -89.79696 | 36844 ft | 552 kts | 125° |
| 2026-05-05 13:37 | 45.20616 | -89.70338 | 36842 ft | 552 kts | 125° |
| 2026-05-05 13:37 | 45.16676 | -89.60975 | 36833 ft | 553 kts | 125° |
| 2026-05-05 13:38 | 45.12738 | -89.51648 | 36831 ft | 553 kts | 125° |
| 2026-05-05 13:38 | 45.08782 | -89.42311 | 36830 ft | 553 kts | 125° |
| 2026-05-05 13:39 | 45.04818 | -89.32984 | 36816 ft | 553 kts | 126° |
| 2026-05-05 13:39 | 45.00857 | -89.23695 | 36810 ft | 553 kts | 126° |
| 2026-05-05 13:40 | 44.96885 | -89.14409 | 36814 ft | 553 kts | 126° |
| 2026-05-05 13:40 | 44.92896 | -89.05118 | 36822 ft | 553 kts | 126° |
| 2026-05-05 13:41 | 44.88911 | -88.95863 | 36831 ft | 553 kts | 126° |
| 2026-05-05 13:41 | 44.84908 | -88.86600 | 36834 ft | 553 kts | 126° |
| 2026-05-05 13:42 | 44.80907 | -88.77368 | 36826 ft | 553 kts | 126° |
| 2026-05-05 13:42 | 44.76886 | -88.68121 | 36823 ft | 553 kts | 127° |
| 2026-05-05 13:43 | 44.72867 | -88.58909 | 36819 ft | 553 kts | 127° |
| 2026-05-05 13:43 | 44.68838 | -88.49703 | 36821 ft | 552 kts | 127° |
| 2026-05-05 13:44 | 44.64798 | -88.40503 | 36826 ft | 552 kts | 127° |
| 2026-05-05 13:44 | 44.60768 | -88.31354 | 36818 ft | 553 kts | 127° |
| 2026-05-05 13:45 | 44.56722 | -88.22166 | 36803 ft | 554 kts | 126° |
| 2026-05-05 13:45 | 44.53483 | -88.12286 | 36817 ft | 561 kts | 116° |
| 2026-05-05 13:46 | 44.50628 | -88.02083 | 36810 ft | 562 kts | 115° |
| 2026-05-05 13:46 | 44.47820 | -87.91855 | 36813 ft | 562 kts | 115° |
| 2026-05-05 13:47 | 44.44992 | -87.81673 | 36822 ft | 563 kts | 116° |
| 2026-05-05 13:47 | 44.42131 | -87.71487 | 36827 ft | 562 kts | 116° |
| 2026-05-05 13:48 | 44.39256 | -87.61314 | 36829 ft | 562 kts | 116° |
| 2026-05-05 13:48 | 44.36375 | -87.51158 | 36828 ft | 562 kts | 116° |
| 2026-05-05 13:49 | 44.33492 | -87.41032 | 36832 ft | 562 kts | 116° |
| 2026-05-05 13:49 | 44.30591 | -87.30888 | 36830 ft | 562 kts | 116° |
| 2026-05-05 13:50 | 44.27684 | -87.20761 | 36829 ft | 562 kts | 116° |
| 2026-05-05 13:50 | 44.24762 | -87.10622 | 36824 ft | 563 kts | 116° |
| 2026-05-05 13:51 | 44.21859 | -87.00589 | 36826 ft | 563 kts | 116° |
| 2026-05-05 13:51 | 44.18898 | -86.90403 | 36824 ft | 563 kts | 116° |
| 2026-05-05 13:52 | 44.15955 | -86.80315 | 36822 ft | 562 kts | 117° |
| 2026-05-05 13:52 | 44.13507 | -86.71952 | 36839 ft | 562 kts | 117° |
| 2026-05-05 13:53 | 44.10549 | -86.61888 | 36835 ft | 561 kts | 117° |
| 2026-05-05 13:53 | 44.07583 | -86.51836 | 36828 ft | 561 kts | 117° |
| 2026-05-05 13:54 | 44.04614 | -86.41815 | 36829 ft | 560 kts | 117° |
| 2026-05-05 13:54 | 44.01638 | -86.31809 | 36828 ft | 560 kts | 117° |
| 2026-05-05 13:55 | 43.98662 | -86.21847 | 36829 ft | 559 kts | 117° |
| 2026-05-05 13:55 | 43.95666 | -86.11849 | 36819 ft | 559 kts | 117° |
| 2026-05-05 13:56 | 43.92674 | -86.01903 | 36812 ft | 559 kts | 117° |
| 2026-05-05 13:56 | 43.89674 | -85.91973 | 36798 ft | 558 kts | 117° |
| 2026-05-05 13:57 | 43.86668 | -85.82057 | 36796 ft | 558 kts | 117° |
| 2026-05-05 13:57 | 43.83658 | -85.72173 | 36796 ft | 558 kts | 117° |
| 2026-05-05 13:58 | 43.80624 | -85.62246 | 36800 ft | 558 kts | 117° |
| 2026-05-05 13:58 | 43.77594 | -85.52370 | 36804 ft | 557 kts | 117° |
| 2026-05-05 13:59 | 43.73040 | -85.37592 | 36803 ft | 557 kts | 118° |
| 2026-05-05 14:00 | 43.68483 | -85.22892 | 36793 ft | 556 kts | 118° |
| 2026-05-05 14:00 | 43.65425 | -85.13074 | 36785 ft | 556 kts | 118° |
| 2026-05-05 14:01 | 43.62350 | -85.03238 | 36785 ft | 556 kts | 118° |
| 2026-05-05 14:01 | 43.59278 | -84.93447 | 36790 ft | 556 kts | 118° |
| 2026-05-05 14:02 | 43.56195 | -84.83659 | 36802 ft | 555 kts | 118° |
| 2026-05-05 14:02 | 43.53136 | -84.73984 | 36803 ft | 554 kts | 118° |
| 2026-05-05 14:03 | 43.50058 | -84.64283 | 36794 ft | 553 kts | 118° |
| 2026-05-05 14:03 | 43.46965 | -84.54574 | 36782 ft | 552 kts | 118° |
| 2026-05-05 14:04 | 43.43877 | -84.44913 | 36793 ft | 551 kts | 118° |
| 2026-05-05 14:04 | 43.40784 | -84.35273 | 36768 ft | 550 kts | 118° |
| 2026-05-05 14:05 | 43.37691 | -84.25666 | 36780 ft | 549 kts | 119° |
| 2026-05-05 14:05 | 43.34600 | -84.16103 | 36788 ft | 548 kts | 119° |
| 2026-05-05 14:06 | 43.31529 | -84.06637 | 36778 ft | 547 kts | 119° |
| 2026-05-05 14:06 | 43.28407 | -83.97044 | 36776 ft | 546 kts | 119° |
| 2026-05-05 14:07 | 43.25296 | -83.87520 | 36779 ft | 546 kts | 119° |
| 2026-05-05 14:07 | 43.22188 | -83.78038 | 36777 ft | 545 kts | 119° |
| 2026-05-05 14:08 | 43.19070 | -83.68561 | 36784 ft | 545 kts | 119° |
| 2026-05-05 14:08 | 43.15943 | -83.59090 | 36787 ft | 544 kts | 120° |
| 2026-05-05 14:09 | 43.12815 | -83.49647 | 36790 ft | 544 kts | 120° |
| 2026-05-05 14:09 | 43.09689 | -83.40247 | 36776 ft | 543 kts | 120° |
| 2026-05-05 14:10 | 43.06558 | -83.30860 | 36780 ft | 542 kts | 120° |
| 2026-05-05 14:10 | 43.03427 | -83.21506 | 36764 ft | 542 kts | 120° |
| 2026-05-05 14:11 | 43.00272 | -83.12118 | 36765 ft | 542 kts | 120° |
| 2026-05-05 14:11 | 42.97090 | -83.02690 | 36759 ft | 551 kts | 120° |
| 2026-05-05 14:12 | 42.93880 | -82.93209 | 36761 ft | 556 kts | 120° |
| 2026-05-05 14:12 | 42.90612 | -82.83572 | 36765 ft | 556 kts | 120° |
| 2026-05-05 14:13 | 42.87364 | -82.74027 | 36773 ft | 555 kts | 120° |
| 2026-05-05 14:13 | 42.84124 | -82.64547 | 36772 ft | 555 kts | 120° |
| 2026-05-05 14:14 | 42.81058 | -82.54824 | 36773 ft | 560 kts | 110° |
| 2026-05-05 14:14 | 42.79204 | -82.44492 | 36772 ft | 562 kts | 105° |
| 2026-05-05 14:15 | 42.77602 | -82.34063 | 36769 ft | 563 kts | 104° |
| 2026-05-05 14:15 | 42.76031 | -82.23710 | 36769 ft | 562 kts | 105° |
| 2026-05-05 14:16 | 42.74419 | -82.13334 | 36764 ft | 561 kts | 105° |
| 2026-05-05 14:16 | 42.72778 | -82.02950 | 36761 ft | 561 kts | 105° |
| 2026-05-05 14:17 | 42.71129 | -81.92603 | 36757 ft | 560 kts | 105° |
| 2026-05-05 14:17 | 42.69465 | -81.82230 | 36747 ft | 560 kts | 105° |
| 2026-05-05 14:18 | 42.67800 | -81.71901 | 36749 ft | 561 kts | 105° |
| 2026-05-05 14:18 | 42.66119 | -81.61535 | 36741 ft | 561 kts | 105° |
| 2026-05-05 14:19 | 42.64434 | -81.51203 | 36739 ft | 561 kts | 105° |
| 2026-05-05 14:19 | 42.62733 | -81.40842 | 36740 ft | 561 kts | 105° |
| 2026-05-05 14:20 | 42.61026 | -81.30504 | 36741 ft | 561 kts | 105° |
| 2026-05-05 14:20 | 42.59308 | -81.20159 | 36741 ft | 561 kts | 105° |
| 2026-05-05 14:21 | 42.57583 | -81.09836 | 36741 ft | 561 kts | 105° |
| 2026-05-05 14:21 | 42.55850 | -80.99525 | 36744 ft | 560 kts | 105° |
| 2026-05-05 14:22 | 42.54112 | -80.89245 | 36744 ft | 560 kts | 105° |
| 2026-05-05 14:22 | 42.52375 | -80.79033 | 36745 ft | 559 kts | 105° |
| 2026-05-05 14:23 | 42.50611 | -80.68717 | 36746 ft | 558 kts | 106° |
| 2026-05-05 14:23 | 42.48742 | -80.58555 | 36744 ft | 556 kts | 108° |
| 2026-05-05 14:24 | 42.46709 | -80.48492 | 36735 ft | 555 kts | 108° |
| 2026-05-05 14:24 | 42.44681 | -80.38457 | 36750 ft | 554 kts | 108° |
| 2026-05-05 14:25 | 42.42674 | -80.28410 | 36745 ft | 553 kts | 108° |
| 2026-05-05 14:25 | 42.40669 | -80.18349 | 36744 ft | 552 kts | 108° |
| 2026-05-05 14:26 | 42.38662 | -80.08330 | 36737 ft | 552 kts | 108° |
| 2026-05-05 14:26 | 42.36649 | -79.98333 | 36740 ft | 551 kts | 108° |
| 2026-05-05 14:27 | 42.34628 | -79.88353 | 36743 ft | 551 kts | 108° |
| 2026-05-05 14:27 | 42.32701 | -79.78882 | 36739 ft | 550 kts | 108° |
| 2026-05-05 14:28 | 42.30665 | -79.68927 | 36743 ft | 551 kts | 108° |
| 2026-05-05 14:28 | 42.28613 | -79.58939 | 36759 ft | 551 kts | 108° |
| 2026-05-05 14:29 | 42.26565 | -79.49015 | 36779 ft | 551 kts | 108° |
| 2026-05-05 14:29 | 42.24492 | -79.39026 | 36796 ft | 551 kts | 108° |
| 2026-05-05 14:30 | 42.22421 | -79.29088 | 36804 ft | 551 kts | 108° |
| 2026-05-05 14:30 | 42.20337 | -79.19136 | 36801 ft | 551 kts | 108° |
| 2026-05-05 14:31 | 42.18252 | -79.09271 | 36795 ft | 550 kts | 109° |
| 2026-05-05 14:31 | 42.15864 | -78.99489 | 36782 ft | 548 kts | 112° |
| 2026-05-05 14:32 | 42.13345 | -78.89798 | 36774 ft | 548 kts | 112° |
| 2026-05-05 14:32 | 42.10860 | -78.80108 | 36773 ft | 547 kts | 112° |
| 2026-05-05 14:33 | 42.08401 | -78.70394 | 36783 ft | 547 kts | 111° |
| 2026-05-05 14:33 | 42.05952 | -78.60710 | 36784 ft | 547 kts | 111° |
| 2026-05-05 14:34 | 42.03497 | -78.51042 | 36781 ft | 545 kts | 111° |
| 2026-05-05 14:34 | 42.01036 | -78.41400 | 36800 ft | 545 kts | 111° |
| 2026-05-05 14:35 | 41.98569 | -78.31777 | 36794 ft | 544 kts | 111° |
| 2026-05-05 14:35 | 41.96117 | -78.22252 | 36804 ft | 543 kts | 112° |
| 2026-05-05 14:36 | 41.93624 | -78.12602 | 36806 ft | 542 kts | 112° |
| 2026-05-05 14:36 | 41.91167 | -78.03134 | 36813 ft | 541 kts | 112° |
| 2026-05-05 14:37 | 41.88691 | -77.93628 | 36813 ft | 540 kts | 112° |
| 2026-05-05 14:37 | 41.86205 | -77.84121 | 36810 ft | 538 kts | 112° |
| 2026-05-05 14:38 | 41.83723 | -77.74662 | 36811 ft | 537 kts | 112° |
| 2026-05-05 14:38 | 41.81240 | -77.65249 | 36808 ft | 536 kts | 112° |
| 2026-05-05 14:39 | 41.78750 | -77.55838 | 36811 ft | 535 kts | 112° |
| 2026-05-05 14:39 | 41.76677 | -77.48016 | 36814 ft | 534 kts | 112° |
| 2026-05-05 14:40 | 41.74184 | -77.38668 | 36806 ft | 533 kts | 112° |
| 2026-05-05 14:40 | 41.71686 | -77.29342 | 36816 ft | 533 kts | 112° |
| 2026-05-05 14:41 | 41.69183 | -77.20025 | 36815 ft | 532 kts | 112° |
| 2026-05-05 14:41 | 41.66675 | -77.10697 | 36815 ft | 532 kts | 112° |
| 2026-05-05 14:42 | 41.64169 | -77.01432 | 36819 ft | 531 kts | 112° |
| 2026-05-05 14:42 | 41.61640 | -76.92141 | 36821 ft | 531 kts | 112° |
| 2026-05-05 14:43 | 41.59099 | -76.82828 | 36825 ft | 531 kts | 112° |
| 2026-05-05 14:43 | 41.56566 | -76.73573 | 36573 ft | 526 kts | 112° |
| 2026-05-05 14:44 | 41.55321 | -76.69032 | 36154 ft | 520 kts | 112° |
| 2026-05-05 14:44 | 41.54075 | -76.64495 | 35668 ft | 516 kts | 112° |
| 2026-05-05 14:44 | 41.52838 | -76.60004 | 35127 ft | 514 kts | 112° |
| 2026-05-05 14:44 | 41.51608 | -76.55544 | 34642 ft | 510 kts | 112° |
| 2026-05-05 14:45 | 41.50386 | -76.51123 | 34199 ft | 507 kts | 112° |
| 2026-05-05 14:45 | 41.49169 | -76.46730 | 33741 ft | 503 kts | 111° |
| 2026-05-05 14:45 | 41.47959 | -76.42364 | 33262 ft | 499 kts | 111° |
| 2026-05-05 14:45 | 41.46762 | -76.38053 | 32826 ft | 494 kts | 111° |
| 2026-05-05 14:46 | 41.45571 | -76.33766 | 32378 ft | 490 kts | 112° |
| 2026-05-05 14:46 | 41.44406 | -76.29586 | 31954 ft | 486 kts | 111° |
| 2026-05-05 14:46 | 41.43232 | -76.25381 | 31514 ft | 482 kts | 111° |
| 2026-05-05 14:46 | 41.42067 | -76.21208 | 31086 ft | 478 kts | 112° |
| 2026-05-05 14:47 | 41.40911 | -76.17079 | 30668 ft | 475 kts | 112° |
| 2026-05-05 14:47 | 41.39760 | -76.12974 | 30246 ft | 471 kts | 112° |
| 2026-05-05 14:47 | 41.38623 | -76.08923 | 29787 ft | 468 kts | 112° |
| 2026-05-05 14:47 | 41.37482 | -76.04870 | 29281 ft | 465 kts | 112° |
| 2026-05-05 14:48 | 41.36350 | -76.00855 | 28802 ft | 462 kts | 112° |
| 2026-05-05 14:48 | 41.35221 | -75.96852 | 28315 ft | 459 kts | 112° |
| 2026-05-05 14:48 | 41.34106 | -75.92908 | 27854 ft | 456 kts | 112° |
| 2026-05-05 14:48 | 41.32992 | -75.88969 | 27401 ft | 453 kts | 112° |
| 2026-05-05 14:49 | 41.31883 | -75.85057 | 26924 ft | 450 kts | 112° |
| 2026-05-05 14:49 | 41.30781 | -75.81178 | 26502 ft | 447 kts | 112° |
| 2026-05-05 14:49 | 41.29680 | -75.77305 | 26082 ft | 444 kts | 112° |
| 2026-05-05 14:49 | 41.28594 | -75.73492 | 25671 ft | 441 kts | 112° |
| 2026-05-05 14:50 | 41.27509 | -75.69685 | 25254 ft | 438 kts | 112° |
| 2026-05-05 14:50 | 41.26394 | -75.65917 | 24831 ft | 435 kts | 115° |
| 2026-05-05 14:50 | 41.25161 | -75.62264 | 24411 ft | 432 kts | 117° |
| 2026-05-05 14:50 | 41.23915 | -75.58645 | 23996 ft | 429 kts | 117° |
| 2026-05-05 14:51 | 41.22688 | -75.55050 | 23624 ft | 426 kts | 116° |
| 2026-05-05 14:51 | 41.21474 | -75.51468 | 23165 ft | 424 kts | 116° |
| 2026-05-05 14:51 | 41.20273 | -75.47910 | 22951 ft | 421 kts | 116° |
| 2026-05-05 14:51 | 41.19074 | -75.44356 | 22928 ft | 422 kts | 116° |
| 2026-05-05 14:52 | 41.17873 | -75.40794 | 22933 ft | 422 kts | 116° |
| 2026-05-05 14:52 | 41.16678 | -75.37251 | 22929 ft | 422 kts | 116° |
| 2026-05-05 14:52 | 41.15473 | -75.33680 | 22932 ft | 422 kts | 116° |
| 2026-05-05 14:52 | 41.14270 | -75.30123 | 22933 ft | 422 kts | 116° |
| 2026-05-05 14:53 | 41.13083 | -75.26608 | 22934 ft | 422 kts | 116° |
| 2026-05-05 14:53 | 41.11869 | -75.23014 | 22925 ft | 422 kts | 116° |
| 2026-05-05 14:53 | 41.10680 | -75.19497 | 22930 ft | 423 kts | 116° |
| 2026-05-05 14:53 | 41.09467 | -75.15915 | 22925 ft | 422 kts | 116° |
| 2026-05-05 14:54 | 41.08271 | -75.12389 | 22926 ft | 422 kts | 116° |
| 2026-05-05 14:54 | 41.07070 | -75.08853 | 22921 ft | 422 kts | 116° |
| 2026-05-05 14:54 | 41.05855 | -75.05270 | 22923 ft | 422 kts | 116° |
| 2026-05-05 14:54 | 41.04653 | -75.01744 | 22918 ft | 422 kts | 117° |
| 2026-05-05 14:55 | 41.03445 | -74.98205 | 22915 ft | 422 kts | 116° |
| 2026-05-05 14:55 | 41.02238 | -74.94672 | 22913 ft | 422 kts | 116° |
| 2026-05-05 14:55 | 41.01033 | -74.91146 | 22915 ft | 422 kts | 117° |
| 2026-05-05 14:55 | 40.99914 | -74.87496 | 22917 ft | 424 kts | 110° |
| 2026-05-05 14:56 | 40.99208 | -74.83701 | 22921 ft | 426 kts | 100° |
| 2026-05-05 14:56 | 40.98956 | -74.79799 | 22918 ft | 426 kts | 93° |
| 2026-05-05 14:56 | 40.98571 | -74.75909 | 22924 ft | 426 kts | 101° |
| 2026-05-05 14:56 | 40.98084 | -74.72031 | 22923 ft | 426 kts | 101° |
| 2026-05-05 14:57 | 40.97610 | -74.68211 | 22627 ft | 423 kts | 101° |
| 2026-05-05 14:57 | 40.97135 | -74.64338 | 22068 ft | 423 kts | 100° |
| 2026-05-05 14:57 | 40.96667 | -74.60509 | 21564 ft | 421 kts | 101° |
| 2026-05-05 14:57 | 40.96200 | -74.56685 | 21099 ft | 419 kts | 101° |
| 2026-05-05 14:58 | 40.95737 | -74.52893 | 20665 ft | 416 kts | 101° |
| 2026-05-05 14:58 | 40.95275 | -74.49127 | 20200 ft | 415 kts | 101° |
| 2026-05-05 14:58 | 40.94814 | -74.45369 | 19729 ft | 413 kts | 101° |
| 2026-05-05 14:58 | 40.94355 | -74.41634 | 19295 ft | 410 kts | 101° |
| 2026-05-05 14:59 | 40.93904 | -74.37977 | 18996 ft | 406 kts | 101° |
| 2026-05-05 14:59 | 40.93442 | -74.34238 | 18930 ft | 407 kts | 101° |
| 2026-05-05 14:59 | 40.92989 | -74.30590 | 18922 ft | 408 kts | 101° |
| 2026-05-05 14:59 | 40.92528 | -74.26889 | 18925 ft | 408 kts | 101° |
| 2026-05-05 15:00 | 40.92066 | -74.23192 | 18924 ft | 408 kts | 101° |
| 2026-05-05 15:00 | 40.91753 | -74.20688 | 18924 ft | 408 kts | 101° |
| 2026-05-05 15:00 | 40.91072 | -74.15819 | 18920 ft | 406 kts | 107° |
| 2026-05-05 15:00 | 40.89983 | -74.12613 | 18924 ft | 399 kts | 128° |
| 2026-05-05 15:01 | 40.88106 | -74.10053 | 18931 ft | 377 kts | 150° |
| 2026-05-05 15:01 | 40.85931 | -74.08323 | 18930 ft | 357 kts | 157° |
| 2026-05-05 15:01 | 40.83792 | -74.06779 | 18931 ft | 344 kts | 157° |
| 2026-05-05 15:01 | 40.81701 | -74.05258 | 18927 ft | 342 kts | 156° |
| 2026-05-05 15:02 | 40.79637 | -74.03738 | 18709 ft | 338 kts | 156° |
| 2026-05-05 15:02 | 40.77616 | -74.02238 | 18075 ft | 334 kts | 156° |
| 2026-05-05 15:02 | 40.75637 | -74.00581 | 17171 ft | 339 kts | 147° |
| 2026-05-05 15:02 | 40.73985 | -73.98335 | 16379 ft | 343 kts | 134° |
| 2026-05-05 15:03 | 40.72522 | -73.95831 | 15804 ft | 346 kts | 132° |
| 2026-05-05 15:03 | 40.71083 | -73.93321 | 15474 ft | 342 kts | 133° |
| 2026-05-05 15:03 | 40.69648 | -73.90834 | 15128 ft | 339 kts | 133° |
| 2026-05-05 15:03 | 40.68220 | -73.88371 | 14737 ft | 338 kts | 133° |
| 2026-05-05 15:04 | 40.66795 | -73.85924 | 14409 ft | 334 kts | 133° |
| 2026-05-05 15:04 | 40.65432 | -73.83460 | 13780 ft | 334 kts | 130° |
| 2026-05-05 15:04 | 40.64151 | -73.80886 | 13325 ft | 335 kts | 129° |
| 2026-05-05 15:04 | 40.62891 | -73.78339 | 13017 ft | 330 kts | 129° |
| 2026-05-05 15:05 | 40.60386 | -73.73359 | 12315 ft | 321 kts | 130° |
| 2026-05-05 15:05 | 40.59151 | -73.70927 | 11855 ft | 319 kts | 130° |
| 2026-05-05 15:05 | 40.57920 | -73.68512 | 11547 ft | 316 kts | 130° |
| 2026-05-05 15:06 | 40.56703 | -73.66129 | 11163 ft | 312 kts | 130° |
| 2026-05-05 15:06 | 40.55539 | -73.63726 | 10802 ft | 314 kts | 124° |
| 2026-05-05 15:06 | 40.54931 | -73.60943 | 10426 ft | 324 kts | 96° |
| 2026-05-05 15:06 | 40.55363 | -73.58031 | 10072 ft | 330 kts | 66° |
| 2026-05-05 15:07 | 40.56758 | -73.55683 | 9660 ft | 327 kts | 35° |
| 2026-05-05 15:07 | 40.58646 | -73.54060 | 9285 ft | 323 kts | 29° |
| 2026-05-05 15:07 | 40.60530 | -73.52485 | 8931 ft | 321 kts | 31° |
| 2026-05-05 15:07 | 40.62350 | -73.50876 | 8572 ft | 319 kts | 32° |
| 2026-05-05 15:08 | 40.64233 | -73.49233 | 8176 ft | 317 kts | 28° |
| 2026-05-05 15:08 | 40.66118 | -73.47849 | 7860 ft | 313 kts | 25° |
| 2026-05-05 15:08 | 40.68037 | -73.46492 | 7506 ft | 312 kts | 26° |
| 2026-05-05 15:08 | 40.69975 | -73.45161 | 7163 ft | 309 kts | 23° |
| 2026-05-05 15:09 | 40.71892 | -73.43975 | 6832 ft | 307 kts | 22° |
| 2026-05-05 15:09 | 40.73804 | -73.42866 | 6515 ft | 304 kts | 17° |
| 2026-05-05 15:09 | 40.75882 | -73.42531 | 6120 ft | 292 kts | 346° |
| 2026-05-05 15:09 | 40.77672 | -73.43540 | 5786 ft | 274 kts | 316° |
| 2026-05-05 15:10 | 40.78871 | -73.45398 | 5479 ft | 263 kts | 296° |
| 2026-05-05 15:10 | 40.79798 | -73.47449 | 5197 ft | 261 kts | 295° |
| 2026-05-05 15:10 | 40.80722 | -73.49518 | 4867 ft | 260 kts | 296° |
| 2026-05-05 15:10 | 40.81619 | -73.51576 | 4563 ft | 257 kts | 292° |
| 2026-05-05 15:11 | 40.82127 | -73.53773 | 4121 ft | 245 kts | 272° |
| 2026-05-05 15:11 | 40.81964 | -73.55973 | 3474 ft | 239 kts | 256° |
| 2026-05-05 15:11 | 40.81535 | -73.58093 | 3108 ft | 237 kts | 253° |
| 2026-05-05 15:11 | 40.81023 | -73.60120 | 3001 ft | 227 kts | 249° |
| 2026-05-05 15:12 | 40.80397 | -73.61959 | 2990 ft | 213 kts | 244° |
| 2026-05-05 15:12 | 40.79679 | -73.63583 | 2980 ft | 196 kts | 238° |
| 2026-05-05 15:12 | 40.78872 | -73.64976 | 2974 ft | 187 kts | 229° |
| 2026-05-05 15:12 | 40.77981 | -73.66120 | 3028 ft | 171 kts | 227° |
| 2026-05-05 15:13 | 40.77133 | -73.67171 | 2956 ft | 163 kts | 227° |
| 2026-05-05 15:13 | 40.76243 | -73.68084 | 2749 ft | 163 kts | 216° |
| 2026-05-05 15:13 | 40.75276 | -73.68849 | 2530 ft | 162 kts | 218° |
| 2026-05-05 15:13 | 40.74317 | -73.69645 | 2271 ft | 160 kts | 216° |
| 2026-05-05 15:14 | 40.73381 | -73.70378 | 2062 ft | 153 kts | 214° |
| 2026-05-05 15:14 | 40.72477 | -73.71038 | 1895 ft | 146 kts | 215° |
| 2026-05-05 15:14 | 40.71620 | -73.71673 | 1701 ft | 137 kts | 215° |
| 2026-05-05 15:14 | 40.70780 | -73.72264 | 1485 ft | 137 kts | 215° |
| 2026-05-05 15:15 | 40.69953 | -73.72861 | 1311 ft | 134 kts | 214° |
| 2026-05-05 15:15 | 40.69130 | -73.73447 | 1155 ft | 137 kts | 211° |
| 2026-05-05 15:15 | 40.68291 | -73.74042 | 956 ft | 135 kts | 211° |
| 2026-05-05 15:15 | 40.67462 | -73.74630 | 787 ft | 136 kts | 210° |
| 2026-05-05 15:16 | 40.66638 | -73.75214 | 619 ft | 134 kts | 208° |
| 2026-05-05 15:16 | 40.65807 | -73.75805 | 414 ft | 135 kts | 206° |
| 2026-05-05 15:16 | 40.64979 | -73.76392 | 240 ft | 136 kts | 206° |
| 2026-05-05 15:16 | 40.64158 | -73.77005 | 68 ft | 135 kts | 209° |
| 2026-05-05 15:17 | 40.63383 | -73.77628 | 30 ft | 121 kts | 211° |
| 2026-05-05 15:17 | 40.62960 | -73.77964 | 29 ft | 32 kts | 211° |
| 2026-05-05 15:17 | 40.62770 | -73.78114 | 30 ft | 33 kts | 210° |
| 2026-05-05 15:17 | 40.62718 | -73.78153 | 31 ft | 2 kts | 211° |
| 2026-05-05 15:18 | 40.62698 | -73.78171 | 32 ft | 6 kts | 216° |
| 2026-05-05 15:18 | 40.62658 | -73.78220 | 33 ft | 10 kts | 232° |
| 2026-05-05 15:18 | 40.62657 | -73.78326 | 32 ft | 15 kts | 297° |
| 2026-05-05 15:18 | 40.62759 | -73.78316 | 29 ft | 20 kts | 26° |
| 2026-05-05 15:19 | 40.62893 | -73.78208 | 28 ft | 24 kts | 30° |
| 2026-05-05 15:19 | 40.63034 | -73.78100 | 28 ft | 23 kts | 30° |
| 2026-05-05 15:19 | 40.63166 | -73.78019 | 30 ft | 21 kts | 13° |
| 2026-05-05 15:19 | 40.63314 | -73.77975 | 28 ft | 23 kts | 25° |
| 2026-05-05 15:20 | 40.63397 | -73.77965 | 27 ft | 3 kts | 300° |
| 2026-05-05 15:20 | 40.63411 | -73.78026 | 27 ft | 13 kts | 286° |
| 2026-05-05 15:20 | 40.63469 | -73.78174 | 26 ft | 22 kts | 301° |
| 2026-05-05 15:20 | 40.63546 | -73.78341 | 27 ft | 19 kts | 301° |
| 2026-05-05 15:21 | 40.63620 | -73.78505 | 28 ft | 23 kts | 301° |
| 2026-05-05 15:21 | 40.63703 | -73.78687 | 27 ft | 24 kts | 301° |
| 2026-05-05 15:21 | 40.63779 | -73.78856 | 27 ft | 19 kts | 301° |
| 2026-05-05 15:21 | 40.63853 | -73.79019 | 27 ft | 22 kts | 301° |
| 2026-05-05 15:22 | 40.63929 | -73.79186 | 26 ft | 18 kts | 301° |
| 2026-05-05 15:22 | 40.63997 | -73.79338 | 27 ft | 20 kts | 301° |
| 2026-05-05 15:22 | 40.64081 | -73.79488 | 27 ft | 21 kts | 332° |
| 2026-05-05 15:22 | 40.64204 | -73.79482 | 27 ft | 14 kts | 52° |
| 2026-05-05 15:23 | 40.64198 | -73.79396 | 27 ft | 7 kts | 123° |
| 2026-05-05 15:23 | 40.64180 | -73.79333 | 27 ft | 9 kts | 108° |
| 2026-05-05 15:23 | 40.64175 | -73.79315 | 27 ft | 0 kts | 108° |